<?xml version="1.0" encoding="UTF-8" standalone="no" ?>
<gpx xmlns="http://www.topografix.com/GPX/1/1" xmlns:xsi="http://www.w3.org/2001/XMLSchema-instance" xsi:schemaLocation="http://www.topografix.com/GPX/1/1 http://www.topografix.com/GPX/1/1/gpx.xsd" version="1.1" creator="VisuGPX - https://www.visugpx.com">
  <metadata>
    <name>83-M-Villecroze          </name>
    <desc><![CDATA[83-M-Villecroze : Le Défens - Chapelle St Victor]]></desc>
  </metadata>
  <trk>
    <name><![CDATA[2018-11-28-M-Villecroze-Cros de Paradis]]></name>
    <trkseg>
      <trkpt lat="43.58217" lon="6.27355">
        <ele>237.8</ele>
        <time>2018-11-28T12:58:05Z</time>
      </trkpt>
      <trkpt lat="43.58217" lon="6.27354">
        <ele>243</ele>
        <time>2018-11-28T12:58:05Z</time>
      </trkpt>
      <trkpt lat="43.58217" lon="6.27354">
        <ele>243</ele>
        <time>2018-11-28T12:58:05Z</time>
      </trkpt>
      <trkpt lat="43.58208" lon="6.27348">
        <ele>305.7</ele>
        <time>2018-11-28T12:58:22Z</time>
      </trkpt>
      <trkpt lat="43.58204" lon="6.27337">
        <ele>316.2</ele>
        <time>2018-11-28T12:58:28Z</time>
      </trkpt>
      <trkpt lat="43.58202" lon="6.27324">
        <ele>323.2</ele>
        <time>2018-11-28T12:58:34Z</time>
      </trkpt>
      <trkpt lat="43.58199" lon="6.27311">
        <ele>328.3</ele>
        <time>2018-11-28T12:58:41Z</time>
      </trkpt>
      <trkpt lat="43.58194" lon="6.273">
        <ele>330.9</ele>
        <time>2018-11-28T12:58:47Z</time>
      </trkpt>
      <trkpt lat="43.5819" lon="6.27288">
        <ele>333.2</ele>
        <time>2018-11-28T12:58:55Z</time>
      </trkpt>
      <trkpt lat="43.58184" lon="6.27275">
        <ele>334.4</ele>
        <time>2018-11-28T12:59:02Z</time>
      </trkpt>
      <trkpt lat="43.58181" lon="6.27263">
        <ele>335.1</ele>
        <time>2018-11-28T12:59:09Z</time>
      </trkpt>
      <trkpt lat="43.58177" lon="6.27251">
        <ele>335.7</ele>
        <time>2018-11-28T12:59:17Z</time>
      </trkpt>
      <trkpt lat="43.58172" lon="6.27241">
        <ele>335.9</ele>
        <time>2018-11-28T12:59:22Z</time>
      </trkpt>
      <trkpt lat="43.58168" lon="6.27229">
        <ele>336.1</ele>
        <time>2018-11-28T12:59:28Z</time>
      </trkpt>
      <trkpt lat="43.58164" lon="6.27217">
        <ele>336.2</ele>
        <time>2018-11-28T12:59:34Z</time>
      </trkpt>
      <trkpt lat="43.5816" lon="6.27204">
        <ele>336.3</ele>
        <time>2018-11-28T12:59:40Z</time>
      </trkpt>
      <trkpt lat="43.58157" lon="6.27193">
        <ele>336.4</ele>
        <time>2018-11-28T12:59:46Z</time>
      </trkpt>
      <trkpt lat="43.58153" lon="6.2718">
        <ele>336.4</ele>
        <time>2018-11-28T12:59:52Z</time>
      </trkpt>
      <trkpt lat="43.58148" lon="6.27168">
        <ele>336.4</ele>
        <time>2018-11-28T12:59:59Z</time>
      </trkpt>
      <trkpt lat="43.58145" lon="6.27156">
        <ele>336.5</ele>
        <time>2018-11-28T13:00:06Z</time>
      </trkpt>
      <trkpt lat="43.58142" lon="6.27144">
        <ele>336.5</ele>
        <time>2018-11-28T13:00:13Z</time>
      </trkpt>
      <trkpt lat="43.5814" lon="6.27131">
        <ele>336.5</ele>
        <time>2018-11-28T13:00:20Z</time>
      </trkpt>
      <trkpt lat="43.58138" lon="6.27118">
        <ele>336.6</ele>
        <time>2018-11-28T13:00:27Z</time>
      </trkpt>
      <trkpt lat="43.58137" lon="6.27105">
        <ele>336.9</ele>
        <time>2018-11-28T13:00:34Z</time>
      </trkpt>
      <trkpt lat="43.58134" lon="6.27092">
        <ele>337.5</ele>
        <time>2018-11-28T13:00:41Z</time>
      </trkpt>
      <trkpt lat="43.5813" lon="6.27079">
        <ele>338.2</ele>
        <time>2018-11-28T13:00:49Z</time>
      </trkpt>
      <trkpt lat="43.58126" lon="6.27067">
        <ele>339</ele>
        <time>2018-11-28T13:01:00Z</time>
      </trkpt>
      <trkpt lat="43.58124" lon="6.27055">
        <ele>340.1</ele>
        <time>2018-11-28T13:01:58Z</time>
      </trkpt>
      <trkpt lat="43.5812" lon="6.27043">
        <ele>340.5</ele>
        <time>2018-11-28T13:02:08Z</time>
      </trkpt>
      <trkpt lat="43.58116" lon="6.27031">
        <ele>341.7</ele>
        <time>2018-11-28T13:02:35Z</time>
      </trkpt>
      <trkpt lat="43.58108" lon="6.27026">
        <ele>341.8</ele>
        <time>2018-11-28T13:03:01Z</time>
      </trkpt>
      <trkpt lat="43.58102" lon="6.27016">
        <ele>341.5</ele>
        <time>2018-11-28T13:03:13Z</time>
      </trkpt>
      <trkpt lat="43.58099" lon="6.27004">
        <ele>341.3</ele>
        <time>2018-11-28T13:03:25Z</time>
      </trkpt>
      <trkpt lat="43.58096" lon="6.26991">
        <ele>341.5</ele>
        <time>2018-11-28T13:05:46Z</time>
      </trkpt>
      <trkpt lat="43.58091" lon="6.2698">
        <ele>341.5</ele>
        <time>2018-11-28T13:06:00Z</time>
      </trkpt>
      <trkpt lat="43.5809" lon="6.26967">
        <ele>340.3</ele>
        <time>2018-11-28T13:06:16Z</time>
      </trkpt>
      <trkpt lat="43.58089" lon="6.26954">
        <ele>338</ele>
        <time>2018-11-28T13:06:33Z</time>
      </trkpt>
      <trkpt lat="43.58085" lon="6.26943">
        <ele>336.6</ele>
        <time>2018-11-28T13:06:43Z</time>
      </trkpt>
      <trkpt lat="43.58081" lon="6.26931">
        <ele>335.4</ele>
        <time>2018-11-28T13:06:53Z</time>
      </trkpt>
      <trkpt lat="43.58078" lon="6.26918">
        <ele>334</ele>
        <time>2018-11-28T13:07:03Z</time>
      </trkpt>
      <trkpt lat="43.58074" lon="6.26908">
        <ele>332.9</ele>
        <time>2018-11-28T13:07:14Z</time>
      </trkpt>
      <trkpt lat="43.58072" lon="6.26895">
        <ele>331.8</ele>
        <time>2018-11-28T13:07:24Z</time>
      </trkpt>
      <trkpt lat="43.58068" lon="6.26883">
        <ele>330.8</ele>
        <time>2018-11-28T13:07:33Z</time>
      </trkpt>
      <trkpt lat="43.58065" lon="6.2687">
        <ele>329.8</ele>
        <time>2018-11-28T13:07:43Z</time>
      </trkpt>
      <trkpt lat="43.58062" lon="6.26857">
        <ele>329</ele>
        <time>2018-11-28T13:07:51Z</time>
      </trkpt>
      <trkpt lat="43.58059" lon="6.26845">
        <ele>328.1</ele>
        <time>2018-11-28T13:08:00Z</time>
      </trkpt>
      <trkpt lat="43.58055" lon="6.26832">
        <ele>327.3</ele>
        <time>2018-11-28T13:08:10Z</time>
      </trkpt>
      <trkpt lat="43.58051" lon="6.26819">
        <ele>326.4</ele>
        <time>2018-11-28T13:08:18Z</time>
      </trkpt>
      <trkpt lat="43.58047" lon="6.26806">
        <ele>325.4</ele>
        <time>2018-11-28T13:08:26Z</time>
      </trkpt>
      <trkpt lat="43.58043" lon="6.26795">
        <ele>324.4</ele>
        <time>2018-11-28T13:08:33Z</time>
      </trkpt>
      <trkpt lat="43.5804" lon="6.26783">
        <ele>323.4</ele>
        <time>2018-11-28T13:08:40Z</time>
      </trkpt>
      <trkpt lat="43.58036" lon="6.2677">
        <ele>322.4</ele>
        <time>2018-11-28T13:08:47Z</time>
      </trkpt>
      <trkpt lat="43.58032" lon="6.26757">
        <ele>321.6</ele>
        <time>2018-11-28T13:08:53Z</time>
      </trkpt>
      <trkpt lat="43.58036" lon="6.26746">
        <ele>320.7</ele>
        <time>2018-11-28T13:09:01Z</time>
      </trkpt>
      <trkpt lat="43.58039" lon="6.26734">
        <ele>320.2</ele>
        <time>2018-11-28T13:09:08Z</time>
      </trkpt>
      <trkpt lat="43.58043" lon="6.26721">
        <ele>319.8</ele>
        <time>2018-11-28T13:09:15Z</time>
      </trkpt>
      <trkpt lat="43.58046" lon="6.26708">
        <ele>319.4</ele>
        <time>2018-11-28T13:09:24Z</time>
      </trkpt>
      <trkpt lat="43.58048" lon="6.26694">
        <ele>319</ele>
        <time>2018-11-28T13:09:32Z</time>
      </trkpt>
      <trkpt lat="43.5805" lon="6.26681">
        <ele>318.8</ele>
        <time>2018-11-28T13:09:40Z</time>
      </trkpt>
      <trkpt lat="43.58048" lon="6.26668">
        <ele>318.7</ele>
        <time>2018-11-28T13:09:48Z</time>
      </trkpt>
      <trkpt lat="43.58048" lon="6.26654">
        <ele>318.6</ele>
        <time>2018-11-28T13:09:56Z</time>
      </trkpt>
      <trkpt lat="43.58046" lon="6.26641">
        <ele>318.6</ele>
        <time>2018-11-28T13:10:02Z</time>
      </trkpt>
      <trkpt lat="43.58045" lon="6.26627">
        <ele>318.6</ele>
        <time>2018-11-28T13:10:08Z</time>
      </trkpt>
      <trkpt lat="43.58046" lon="6.26614">
        <ele>318.8</ele>
        <time>2018-11-28T13:10:16Z</time>
      </trkpt>
      <trkpt lat="43.58047" lon="6.266">
        <ele>318.9</ele>
        <time>2018-11-28T13:10:22Z</time>
      </trkpt>
      <trkpt lat="43.58052" lon="6.26588">
        <ele>319.2</ele>
        <time>2018-11-28T13:10:30Z</time>
      </trkpt>
      <trkpt lat="43.58056" lon="6.26576">
        <ele>319.6</ele>
        <time>2018-11-28T13:10:36Z</time>
      </trkpt>
      <trkpt lat="43.58061" lon="6.26565">
        <ele>320</ele>
        <time>2018-11-28T13:10:45Z</time>
      </trkpt>
      <trkpt lat="43.58067" lon="6.26554">
        <ele>320.2</ele>
        <time>2018-11-28T13:10:52Z</time>
      </trkpt>
      <trkpt lat="43.58075" lon="6.26561">
        <ele>320.8</ele>
        <time>2018-11-28T13:11:01Z</time>
      </trkpt>
      <trkpt lat="43.58084" lon="6.26566">
        <ele>321.8</ele>
        <time>2018-11-28T13:11:12Z</time>
      </trkpt>
      <trkpt lat="43.58092" lon="6.26559">
        <ele>322.5</ele>
        <time>2018-11-28T13:11:18Z</time>
      </trkpt>
      <trkpt lat="43.58102" lon="6.26554">
        <ele>323.2</ele>
        <time>2018-11-28T13:11:24Z</time>
      </trkpt>
      <trkpt lat="43.58111" lon="6.26556">
        <ele>325.8</ele>
        <time>2018-11-28T13:11:43Z</time>
      </trkpt>
      <trkpt lat="43.58121" lon="6.26552">
        <ele>327.6</ele>
        <time>2018-11-28T13:11:55Z</time>
      </trkpt>
      <trkpt lat="43.58131" lon="6.26551">
        <ele>329.2</ele>
        <time>2018-11-28T13:12:06Z</time>
      </trkpt>
      <trkpt lat="43.5814" lon="6.26555">
        <ele>330.9</ele>
        <time>2018-11-28T13:12:18Z</time>
      </trkpt>
      <trkpt lat="43.58144" lon="6.26566">
        <ele>332.7</ele>
        <time>2018-11-28T13:12:32Z</time>
      </trkpt>
      <trkpt lat="43.58149" lon="6.26577">
        <ele>334.7</ele>
        <time>2018-11-28T13:12:45Z</time>
      </trkpt>
      <trkpt lat="43.58164" lon="6.26579">
        <ele>338</ele>
        <time>2018-11-28T13:14:25Z</time>
      </trkpt>
      <trkpt lat="43.58173" lon="6.26584">
        <ele>339.2</ele>
        <time>2018-11-28T13:14:40Z</time>
      </trkpt>
      <trkpt lat="43.58182" lon="6.26585">
        <ele>340.3</ele>
        <time>2018-11-28T13:14:51Z</time>
      </trkpt>
      <trkpt lat="43.58191" lon="6.2658">
        <ele>341.2</ele>
        <time>2018-11-28T13:14:59Z</time>
      </trkpt>
      <trkpt lat="43.58197" lon="6.26571">
        <ele>342.2</ele>
        <time>2018-11-28T13:15:09Z</time>
      </trkpt>
      <trkpt lat="43.58205" lon="6.26564">
        <ele>343</ele>
        <time>2018-11-28T13:15:19Z</time>
      </trkpt>
      <trkpt lat="43.58212" lon="6.26556">
        <ele>344.6</ele>
        <time>2018-11-28T13:15:32Z</time>
      </trkpt>
      <trkpt lat="43.58218" lon="6.26545">
        <ele>346.5</ele>
        <time>2018-11-28T13:15:44Z</time>
      </trkpt>
      <trkpt lat="43.58221" lon="6.26532">
        <ele>347.8</ele>
        <time>2018-11-28T13:15:56Z</time>
      </trkpt>
      <trkpt lat="43.58221" lon="6.2652">
        <ele>348.9</ele>
        <time>2018-11-28T13:16:07Z</time>
      </trkpt>
      <trkpt lat="43.58225" lon="6.26508">
        <ele>350.2</ele>
        <time>2018-11-28T13:16:19Z</time>
      </trkpt>
      <trkpt lat="43.58223" lon="6.26496">
        <ele>351.2</ele>
        <time>2018-11-28T13:16:30Z</time>
      </trkpt>
      <trkpt lat="43.58223" lon="6.26482">
        <ele>352.6</ele>
        <time>2018-11-28T13:16:43Z</time>
      </trkpt>
      <trkpt lat="43.58224" lon="6.2647">
        <ele>354</ele>
        <time>2018-11-28T13:16:56Z</time>
      </trkpt>
      <trkpt lat="43.58218" lon="6.2646">
        <ele>356.7</ele>
        <time>2018-11-28T13:17:17Z</time>
      </trkpt>
      <trkpt lat="43.58215" lon="6.26447">
        <ele>357.8</ele>
        <time>2018-11-28T13:17:28Z</time>
      </trkpt>
      <trkpt lat="43.58218" lon="6.26434">
        <ele>359.5</ele>
        <time>2018-11-28T13:17:42Z</time>
      </trkpt>
      <trkpt lat="43.58223" lon="6.26422">
        <ele>361</ele>
        <time>2018-11-28T13:17:55Z</time>
      </trkpt>
      <trkpt lat="43.58227" lon="6.26411">
        <ele>361.7</ele>
        <time>2018-11-28T13:18:05Z</time>
      </trkpt>
      <trkpt lat="43.58222" lon="6.264">
        <ele>362</ele>
        <time>2018-11-28T13:18:14Z</time>
      </trkpt>
      <trkpt lat="43.5822" lon="6.26387">
        <ele>362.2</ele>
        <time>2018-11-28T13:18:23Z</time>
      </trkpt>
      <trkpt lat="43.58222" lon="6.26374">
        <ele>363</ele>
        <time>2018-11-28T13:18:35Z</time>
      </trkpt>
      <trkpt lat="43.58223" lon="6.26361">
        <ele>363.5</ele>
        <time>2018-11-28T13:18:45Z</time>
      </trkpt>
      <trkpt lat="43.58226" lon="6.26349">
        <ele>363.8</ele>
        <time>2018-11-28T13:18:54Z</time>
      </trkpt>
      <trkpt lat="43.58232" lon="6.26339">
        <ele>364.4</ele>
        <time>2018-11-28T13:19:07Z</time>
      </trkpt>
      <trkpt lat="43.58234" lon="6.26327">
        <ele>365</ele>
        <time>2018-11-28T13:19:16Z</time>
      </trkpt>
      <trkpt lat="43.5824" lon="6.26317">
        <ele>365.6</ele>
        <time>2018-11-28T13:19:28Z</time>
      </trkpt>
      <trkpt lat="43.58235" lon="6.26306">
        <ele>366.5</ele>
        <time>2018-11-28T13:19:40Z</time>
      </trkpt>
      <trkpt lat="43.58228" lon="6.26297">
        <ele>368.2</ele>
        <time>2018-11-28T13:19:56Z</time>
      </trkpt>
      <trkpt lat="43.58228" lon="6.26285">
        <ele>369.9</ele>
        <time>2018-11-28T13:20:11Z</time>
      </trkpt>
      <trkpt lat="43.58235" lon="6.26277">
        <ele>371.9</ele>
        <time>2018-11-28T13:20:25Z</time>
      </trkpt>
      <trkpt lat="43.58236" lon="6.26264">
        <ele>373.2</ele>
        <time>2018-11-28T13:20:38Z</time>
      </trkpt>
      <trkpt lat="43.58236" lon="6.2625">
        <ele>374.1</ele>
        <time>2018-11-28T13:20:48Z</time>
      </trkpt>
      <trkpt lat="43.58234" lon="6.26238">
        <ele>375.7</ele>
        <time>2018-11-28T13:21:02Z</time>
      </trkpt>
      <trkpt lat="43.58233" lon="6.26225">
        <ele>376.5</ele>
        <time>2018-11-28T13:21:12Z</time>
      </trkpt>
      <trkpt lat="43.58231" lon="6.26213">
        <ele>376.9</ele>
        <time>2018-11-28T13:21:21Z</time>
      </trkpt>
      <trkpt lat="43.58228" lon="6.262">
        <ele>377.1</ele>
        <time>2018-11-28T13:21:32Z</time>
      </trkpt>
      <trkpt lat="43.58225" lon="6.26188">
        <ele>376.4</ele>
        <time>2018-11-28T13:21:45Z</time>
      </trkpt>
      <trkpt lat="43.58222" lon="6.26176">
        <ele>375.6</ele>
        <time>2018-11-28T13:21:56Z</time>
      </trkpt>
      <trkpt lat="43.58216" lon="6.26165">
        <ele>374.8</ele>
        <time>2018-11-28T13:22:06Z</time>
      </trkpt>
      <trkpt lat="43.58211" lon="6.26155">
        <ele>373.8</ele>
        <time>2018-11-28T13:22:18Z</time>
      </trkpt>
      <trkpt lat="43.5821" lon="6.26141">
        <ele>373</ele>
        <time>2018-11-28T13:22:30Z</time>
      </trkpt>
      <trkpt lat="43.58211" lon="6.26128">
        <ele>372.5</ele>
        <time>2018-11-28T13:22:38Z</time>
      </trkpt>
      <trkpt lat="43.58219" lon="6.2612">
        <ele>371.9</ele>
        <time>2018-11-28T13:22:50Z</time>
      </trkpt>
      <trkpt lat="43.5822" lon="6.26107">
        <ele>371.4</ele>
        <time>2018-11-28T13:22:59Z</time>
      </trkpt>
      <trkpt lat="43.58217" lon="6.26095">
        <ele>371.2</ele>
        <time>2018-11-28T13:23:09Z</time>
      </trkpt>
      <trkpt lat="43.5821" lon="6.26085">
        <ele>371.1</ele>
        <time>2018-11-28T13:23:17Z</time>
      </trkpt>
      <trkpt lat="43.58208" lon="6.26073">
        <ele>371</ele>
        <time>2018-11-28T13:23:25Z</time>
      </trkpt>
      <trkpt lat="43.58205" lon="6.2606">
        <ele>370.9</ele>
        <time>2018-11-28T13:23:35Z</time>
      </trkpt>
      <trkpt lat="43.58199" lon="6.26049">
        <ele>370.9</ele>
        <time>2018-11-28T13:23:45Z</time>
      </trkpt>
      <trkpt lat="43.58195" lon="6.26037">
        <ele>370.8</ele>
        <time>2018-11-28T13:23:55Z</time>
      </trkpt>
      <trkpt lat="43.58194" lon="6.26023">
        <ele>370.4</ele>
        <time>2018-11-28T13:24:05Z</time>
      </trkpt>
      <trkpt lat="43.58194" lon="6.2601">
        <ele>370.1</ele>
        <time>2018-11-28T13:24:14Z</time>
      </trkpt>
      <trkpt lat="43.582" lon="6.26">
        <ele>369.7</ele>
        <time>2018-11-28T13:24:22Z</time>
      </trkpt>
      <trkpt lat="43.58202" lon="6.25986">
        <ele>369.3</ele>
        <time>2018-11-28T13:24:32Z</time>
      </trkpt>
      <trkpt lat="43.58202" lon="6.25973">
        <ele>368.9</ele>
        <time>2018-11-28T13:24:41Z</time>
      </trkpt>
      <trkpt lat="43.58206" lon="6.25961">
        <ele>368.7</ele>
        <time>2018-11-28T13:24:52Z</time>
      </trkpt>
      <trkpt lat="43.58208" lon="6.25948">
        <ele>368.6</ele>
        <time>2018-11-28T13:25:02Z</time>
      </trkpt>
      <trkpt lat="43.58208" lon="6.25936">
        <ele>368.5</ele>
        <time>2018-11-28T13:25:11Z</time>
      </trkpt>
      <trkpt lat="43.58206" lon="6.25922">
        <ele>368.3</ele>
        <time>2018-11-28T13:25:17Z</time>
      </trkpt>
      <trkpt lat="43.58208" lon="6.25909">
        <ele>368.1</ele>
        <time>2018-11-28T13:25:25Z</time>
      </trkpt>
      <trkpt lat="43.5821" lon="6.25896">
        <ele>367.9</ele>
        <time>2018-11-28T13:25:34Z</time>
      </trkpt>
      <trkpt lat="43.58209" lon="6.25882">
        <ele>367.6</ele>
        <time>2018-11-28T13:25:42Z</time>
      </trkpt>
      <trkpt lat="43.58208" lon="6.25868">
        <ele>367.2</ele>
        <time>2018-11-28T13:25:50Z</time>
      </trkpt>
      <trkpt lat="43.58206" lon="6.25856">
        <ele>366.8</ele>
        <time>2018-11-28T13:25:57Z</time>
      </trkpt>
      <trkpt lat="43.58203" lon="6.25843">
        <ele>366.4</ele>
        <time>2018-11-28T13:26:05Z</time>
      </trkpt>
      <trkpt lat="43.58199" lon="6.25831">
        <ele>366.1</ele>
        <time>2018-11-28T13:26:18Z</time>
      </trkpt>
      <trkpt lat="43.58191" lon="6.25826">
        <ele>366</ele>
        <time>2018-11-28T13:26:26Z</time>
      </trkpt>
      <trkpt lat="43.58183" lon="6.25818">
        <ele>366.2</ele>
        <time>2018-11-28T13:26:38Z</time>
      </trkpt>
      <trkpt lat="43.58179" lon="6.25806">
        <ele>366.8</ele>
        <time>2018-11-28T13:26:48Z</time>
      </trkpt>
      <trkpt lat="43.58185" lon="6.25796">
        <ele>368.1</ele>
        <time>2018-11-28T13:27:07Z</time>
      </trkpt>
      <trkpt lat="43.58193" lon="6.25788">
        <ele>369.1</ele>
        <time>2018-11-28T13:27:19Z</time>
      </trkpt>
      <trkpt lat="43.58202" lon="6.25783">
        <ele>370.1</ele>
        <time>2018-11-28T13:27:30Z</time>
      </trkpt>
      <trkpt lat="43.5821" lon="6.25776">
        <ele>371.8</ele>
        <time>2018-11-28T13:27:46Z</time>
      </trkpt>
      <trkpt lat="43.58216" lon="6.25765">
        <ele>372.9</ele>
        <time>2018-11-28T13:27:56Z</time>
      </trkpt>
      <trkpt lat="43.58219" lon="6.25754">
        <ele>373.8</ele>
        <time>2018-11-28T13:28:05Z</time>
      </trkpt>
      <trkpt lat="43.58218" lon="6.25741">
        <ele>374.8</ele>
        <time>2018-11-28T13:28:14Z</time>
      </trkpt>
      <trkpt lat="43.58214" lon="6.25729">
        <ele>375.4</ele>
        <time>2018-11-28T13:28:22Z</time>
      </trkpt>
      <trkpt lat="43.58209" lon="6.25719">
        <ele>375.9</ele>
        <time>2018-11-28T13:28:31Z</time>
      </trkpt>
      <trkpt lat="43.58202" lon="6.25709">
        <ele>376.6</ele>
        <time>2018-11-28T13:28:41Z</time>
      </trkpt>
      <trkpt lat="43.58196" lon="6.25698">
        <ele>377.1</ele>
        <time>2018-11-28T13:28:52Z</time>
      </trkpt>
      <trkpt lat="43.58195" lon="6.25685">
        <ele>377.4</ele>
        <time>2018-11-28T13:29:03Z</time>
      </trkpt>
      <trkpt lat="43.58194" lon="6.25672">
        <ele>377.3</ele>
        <time>2018-11-28T13:29:22Z</time>
      </trkpt>
      <trkpt lat="43.58195" lon="6.25659">
        <ele>376.9</ele>
        <time>2018-11-28T13:29:50Z</time>
      </trkpt>
      <trkpt lat="43.58199" lon="6.25647">
        <ele>376.8</ele>
        <time>2018-11-28T13:30:03Z</time>
      </trkpt>
      <trkpt lat="43.58204" lon="6.25636">
        <ele>376.8</ele>
        <time>2018-11-28T13:30:13Z</time>
      </trkpt>
      <trkpt lat="43.58207" lon="6.25623">
        <ele>376.8</ele>
        <time>2018-11-28T13:30:24Z</time>
      </trkpt>
      <trkpt lat="43.58213" lon="6.25614">
        <ele>377.1</ele>
        <time>2018-11-28T13:30:33Z</time>
      </trkpt>
      <trkpt lat="43.58219" lon="6.25604">
        <ele>377.4</ele>
        <time>2018-11-28T13:30:43Z</time>
      </trkpt>
      <trkpt lat="43.58225" lon="6.25594">
        <ele>378.1</ele>
        <time>2018-11-28T13:30:54Z</time>
      </trkpt>
      <trkpt lat="43.5823" lon="6.25583">
        <ele>379.4</ele>
        <time>2018-11-28T13:31:08Z</time>
      </trkpt>
      <trkpt lat="43.58237" lon="6.25575">
        <ele>381</ele>
        <time>2018-11-28T13:31:21Z</time>
      </trkpt>
      <trkpt lat="43.58242" lon="6.25565">
        <ele>382.6</ele>
        <time>2018-11-28T13:31:31Z</time>
      </trkpt>
      <trkpt lat="43.58242" lon="6.25551">
        <ele>385.5</ele>
        <time>2018-11-28T13:31:58Z</time>
      </trkpt>
      <trkpt lat="43.5824" lon="6.25537">
        <ele>388.1</ele>
        <time>2018-11-28T13:36:40Z</time>
      </trkpt>
      <trkpt lat="43.58238" lon="6.25522">
        <ele>388.4</ele>
        <time>2018-11-28T13:36:48Z</time>
      </trkpt>
      <trkpt lat="43.58234" lon="6.2551">
        <ele>388.5</ele>
        <time>2018-11-28T13:36:55Z</time>
      </trkpt>
      <trkpt lat="43.58232" lon="6.25498">
        <ele>388.6</ele>
        <time>2018-11-28T13:37:03Z</time>
      </trkpt>
      <trkpt lat="43.58224" lon="6.25491">
        <ele>388.6</ele>
        <time>2018-11-28T13:37:13Z</time>
      </trkpt>
      <trkpt lat="43.58223" lon="6.25478">
        <ele>388.7</ele>
        <time>2018-11-28T13:37:21Z</time>
      </trkpt>
      <trkpt lat="43.58215" lon="6.25471">
        <ele>388.8</ele>
        <time>2018-11-28T13:37:30Z</time>
      </trkpt>
      <trkpt lat="43.58209" lon="6.25459">
        <ele>388.9</ele>
        <time>2018-11-28T13:37:39Z</time>
      </trkpt>
      <trkpt lat="43.58204" lon="6.25448">
        <ele>389</ele>
        <time>2018-11-28T13:37:47Z</time>
      </trkpt>
      <trkpt lat="43.58206" lon="6.25435">
        <ele>389.4</ele>
        <time>2018-11-28T13:38:01Z</time>
      </trkpt>
      <trkpt lat="43.58211" lon="6.25425">
        <ele>389.9</ele>
        <time>2018-11-28T13:38:12Z</time>
      </trkpt>
      <trkpt lat="43.58213" lon="6.25413">
        <ele>390.8</ele>
        <time>2018-11-28T13:38:24Z</time>
      </trkpt>
      <trkpt lat="43.58214" lon="6.254">
        <ele>392.7</ele>
        <time>2018-11-28T13:38:41Z</time>
      </trkpt>
      <trkpt lat="43.5822" lon="6.25391">
        <ele>394.9</ele>
        <time>2018-11-28T13:38:58Z</time>
      </trkpt>
      <trkpt lat="43.58224" lon="6.25379">
        <ele>397</ele>
        <time>2018-11-28T13:39:14Z</time>
      </trkpt>
      <trkpt lat="43.58223" lon="6.25366">
        <ele>399.3</ele>
        <time>2018-11-28T13:39:31Z</time>
      </trkpt>
      <trkpt lat="43.58225" lon="6.25353">
        <ele>401.2</ele>
        <time>2018-11-28T13:39:47Z</time>
      </trkpt>
      <trkpt lat="43.58232" lon="6.25345">
        <ele>402.7</ele>
        <time>2018-11-28T13:40:00Z</time>
      </trkpt>
      <trkpt lat="43.58232" lon="6.25332">
        <ele>405.2</ele>
        <time>2018-11-28T13:40:17Z</time>
      </trkpt>
      <trkpt lat="43.58241" lon="6.25327">
        <ele>406.3</ele>
        <time>2018-11-28T13:40:25Z</time>
      </trkpt>
      <trkpt lat="43.58249" lon="6.2532">
        <ele>407.6</ele>
        <time>2018-11-28T13:40:36Z</time>
      </trkpt>
      <trkpt lat="43.58255" lon="6.2531">
        <ele>409.4</ele>
        <time>2018-11-28T13:40:51Z</time>
      </trkpt>
      <trkpt lat="43.58263" lon="6.25302">
        <ele>411.2</ele>
        <time>2018-11-28T13:41:05Z</time>
      </trkpt>
      <trkpt lat="43.58269" lon="6.25291">
        <ele>413.3</ele>
        <time>2018-11-28T13:41:22Z</time>
      </trkpt>
      <trkpt lat="43.58273" lon="6.2528">
        <ele>414.5</ele>
        <time>2018-11-28T13:41:32Z</time>
      </trkpt>
      <trkpt lat="43.58278" lon="6.25269">
        <ele>416</ele>
        <time>2018-11-28T13:41:47Z</time>
      </trkpt>
      <trkpt lat="43.58286" lon="6.25262">
        <ele>417.5</ele>
        <time>2018-11-28T13:41:59Z</time>
      </trkpt>
      <trkpt lat="43.58294" lon="6.25259">
        <ele>419.3</ele>
        <time>2018-11-28T13:42:15Z</time>
      </trkpt>
      <trkpt lat="43.58304" lon="6.25256">
        <ele>422.1</ele>
        <time>2018-11-28T13:42:37Z</time>
      </trkpt>
      <trkpt lat="43.58313" lon="6.25257">
        <ele>425.2</ele>
        <time>2018-11-28T13:42:59Z</time>
      </trkpt>
      <trkpt lat="43.58321" lon="6.25263">
        <ele>427.2</ele>
        <time>2018-11-28T13:43:15Z</time>
      </trkpt>
      <trkpt lat="43.5833" lon="6.25257">
        <ele>428.5</ele>
        <time>2018-11-28T13:43:26Z</time>
      </trkpt>
      <trkpt lat="43.58336" lon="6.25247">
        <ele>429.7</ele>
        <time>2018-11-28T13:43:39Z</time>
      </trkpt>
      <trkpt lat="43.58345" lon="6.25245">
        <ele>430.9</ele>
        <time>2018-11-28T13:43:53Z</time>
      </trkpt>
      <trkpt lat="43.58354" lon="6.2524">
        <ele>432.3</ele>
        <time>2018-11-28T13:44:06Z</time>
      </trkpt>
      <trkpt lat="43.58363" lon="6.25239">
        <ele>433.7</ele>
        <time>2018-11-28T13:44:19Z</time>
      </trkpt>
      <trkpt lat="43.58372" lon="6.25238">
        <ele>435.2</ele>
        <time>2018-11-28T13:44:35Z</time>
      </trkpt>
      <trkpt lat="43.58381" lon="6.25235">
        <ele>436.6</ele>
        <time>2018-11-28T13:44:49Z</time>
      </trkpt>
      <trkpt lat="43.5839" lon="6.25233">
        <ele>437.8</ele>
        <time>2018-11-28T13:45:01Z</time>
      </trkpt>
      <trkpt lat="43.58399" lon="6.25229">
        <ele>439</ele>
        <time>2018-11-28T13:45:13Z</time>
      </trkpt>
      <trkpt lat="43.58407" lon="6.25235">
        <ele>440.9</ele>
        <time>2018-11-28T13:45:32Z</time>
      </trkpt>
      <trkpt lat="43.58416" lon="6.25236">
        <ele>442.3</ele>
        <time>2018-11-28T13:45:46Z</time>
      </trkpt>
      <trkpt lat="43.58425" lon="6.25235">
        <ele>443.7</ele>
        <time>2018-11-28T13:45:58Z</time>
      </trkpt>
      <trkpt lat="43.58434" lon="6.25236">
        <ele>445</ele>
        <time>2018-11-28T13:46:09Z</time>
      </trkpt>
      <trkpt lat="43.58443" lon="6.25241">
        <ele>445.9</ele>
        <time>2018-11-28T13:46:23Z</time>
      </trkpt>
      <trkpt lat="43.58452" lon="6.2524">
        <ele>447.1</ele>
        <time>2018-11-28T13:46:37Z</time>
      </trkpt>
      <trkpt lat="43.58461" lon="6.25236">
        <ele>449</ele>
        <time>2018-11-28T13:46:59Z</time>
      </trkpt>
      <trkpt lat="43.58471" lon="6.25235">
        <ele>449.9</ele>
        <time>2018-11-28T13:47:10Z</time>
      </trkpt>
      <trkpt lat="43.5848" lon="6.25228">
        <ele>450.5</ele>
        <time>2018-11-28T13:47:19Z</time>
      </trkpt>
      <trkpt lat="43.58487" lon="6.25219">
        <ele>451.2</ele>
        <time>2018-11-28T13:47:27Z</time>
      </trkpt>
      <trkpt lat="43.58496" lon="6.25217">
        <ele>451.9</ele>
        <time>2018-11-28T13:47:42Z</time>
      </trkpt>
      <trkpt lat="43.58505" lon="6.25221">
        <ele>452</ele>
        <time>2018-11-28T13:47:55Z</time>
      </trkpt>
      <trkpt lat="43.58515" lon="6.25224">
        <ele>451.9</ele>
        <time>2018-11-28T13:48:09Z</time>
      </trkpt>
      <trkpt lat="43.58523" lon="6.25219">
        <ele>451.6</ele>
        <time>2018-11-28T13:48:19Z</time>
      </trkpt>
      <trkpt lat="43.5853" lon="6.25228">
        <ele>445.3</ele>
        <time>2018-11-28T13:54:09Z</time>
      </trkpt>
      <trkpt lat="43.58528" lon="6.25241">
        <ele>445</ele>
        <time>2018-11-28T13:54:20Z</time>
      </trkpt>
      <trkpt lat="43.5853" lon="6.25254">
        <ele>444.2</ele>
        <time>2018-11-28T13:54:31Z</time>
      </trkpt>
      <trkpt lat="43.58533" lon="6.25266">
        <ele>443</ele>
        <time>2018-11-28T13:54:49Z</time>
      </trkpt>
      <trkpt lat="43.58537" lon="6.25277">
        <ele>441.5</ele>
        <time>2018-11-28T13:55:10Z</time>
      </trkpt>
      <trkpt lat="43.58538" lon="6.2529">
        <ele>440.8</ele>
        <time>2018-11-28T13:55:23Z</time>
      </trkpt>
      <trkpt lat="43.58538" lon="6.25303">
        <ele>440.4</ele>
        <time>2018-11-28T13:55:34Z</time>
      </trkpt>
      <trkpt lat="43.58539" lon="6.25315">
        <ele>439.9</ele>
        <time>2018-11-28T13:55:45Z</time>
      </trkpt>
      <trkpt lat="43.58543" lon="6.25328">
        <ele>439.7</ele>
        <time>2018-11-28T13:55:52Z</time>
      </trkpt>
      <trkpt lat="43.58552" lon="6.25331">
        <ele>439.5</ele>
        <time>2018-11-28T13:55:59Z</time>
      </trkpt>
      <trkpt lat="43.58561" lon="6.25329">
        <ele>439.3</ele>
        <time>2018-11-28T13:56:06Z</time>
      </trkpt>
      <trkpt lat="43.58571" lon="6.2533">
        <ele>439</ele>
        <time>2018-11-28T13:56:14Z</time>
      </trkpt>
      <trkpt lat="43.58579" lon="6.25332">
        <ele>438.9</ele>
        <time>2018-11-28T13:56:23Z</time>
      </trkpt>
      <trkpt lat="43.58589" lon="6.25336">
        <ele>438.7</ele>
        <time>2018-11-28T13:56:33Z</time>
      </trkpt>
      <trkpt lat="43.58594" lon="6.25347">
        <ele>438.5</ele>
        <time>2018-11-28T13:56:45Z</time>
      </trkpt>
      <trkpt lat="43.58599" lon="6.25358">
        <ele>438.5</ele>
        <time>2018-11-28T13:56:55Z</time>
      </trkpt>
      <trkpt lat="43.58603" lon="6.25369">
        <ele>438.8</ele>
        <time>2018-11-28T13:57:07Z</time>
      </trkpt>
      <trkpt lat="43.5861" lon="6.25379">
        <ele>439</ele>
        <time>2018-11-28T13:57:15Z</time>
      </trkpt>
      <trkpt lat="43.58617" lon="6.25388">
        <ele>439.2</ele>
        <time>2018-11-28T13:57:24Z</time>
      </trkpt>
      <trkpt lat="43.5862" lon="6.254">
        <ele>439.4</ele>
        <time>2018-11-28T13:57:36Z</time>
      </trkpt>
      <trkpt lat="43.58614" lon="6.25411">
        <ele>439.9</ele>
        <time>2018-11-28T13:57:46Z</time>
      </trkpt>
      <trkpt lat="43.58609" lon="6.25422">
        <ele>440.2</ele>
        <time>2018-11-28T13:57:55Z</time>
      </trkpt>
      <trkpt lat="43.58608" lon="6.25435">
        <ele>440.4</ele>
        <time>2018-11-28T13:58:02Z</time>
      </trkpt>
      <trkpt lat="43.5861" lon="6.25447">
        <ele>440.6</ele>
        <time>2018-11-28T13:58:10Z</time>
      </trkpt>
      <trkpt lat="43.58613" lon="6.25459">
        <ele>440.7</ele>
        <time>2018-11-28T13:58:20Z</time>
      </trkpt>
      <trkpt lat="43.5862" lon="6.25467">
        <ele>440.7</ele>
        <time>2018-11-28T13:58:28Z</time>
      </trkpt>
      <trkpt lat="43.58626" lon="6.25477">
        <ele>440.7</ele>
        <time>2018-11-28T13:58:34Z</time>
      </trkpt>
      <trkpt lat="43.58627" lon="6.25491">
        <ele>440.7</ele>
        <time>2018-11-28T13:58:41Z</time>
      </trkpt>
      <trkpt lat="43.58629" lon="6.25504">
        <ele>440.6</ele>
        <time>2018-11-28T13:58:49Z</time>
      </trkpt>
      <trkpt lat="43.58631" lon="6.25517">
        <ele>440.5</ele>
        <time>2018-11-28T13:58:58Z</time>
      </trkpt>
      <trkpt lat="43.58631" lon="6.25531">
        <ele>440.4</ele>
        <time>2018-11-28T13:59:06Z</time>
      </trkpt>
      <trkpt lat="43.58631" lon="6.25543">
        <ele>440.3</ele>
        <time>2018-11-28T13:59:14Z</time>
      </trkpt>
      <trkpt lat="43.58634" lon="6.25557">
        <ele>440.1</ele>
        <time>2018-11-28T13:59:24Z</time>
      </trkpt>
      <trkpt lat="43.58636" lon="6.25569">
        <ele>439.9</ele>
        <time>2018-11-28T13:59:33Z</time>
      </trkpt>
      <trkpt lat="43.5863" lon="6.2558">
        <ele>439.7</ele>
        <time>2018-11-28T13:59:40Z</time>
      </trkpt>
      <trkpt lat="43.58624" lon="6.25591">
        <ele>439.6</ele>
        <time>2018-11-28T13:59:49Z</time>
      </trkpt>
      <trkpt lat="43.58617" lon="6.25599">
        <ele>439.4</ele>
        <time>2018-11-28T13:59:59Z</time>
      </trkpt>
      <trkpt lat="43.58611" lon="6.2561">
        <ele>439.3</ele>
        <time>2018-11-28T14:00:07Z</time>
      </trkpt>
      <trkpt lat="43.58608" lon="6.25622">
        <ele>439.2</ele>
        <time>2018-11-28T14:00:14Z</time>
      </trkpt>
      <trkpt lat="43.58608" lon="6.25636">
        <ele>439</ele>
        <time>2018-11-28T14:00:23Z</time>
      </trkpt>
      <trkpt lat="43.58607" lon="6.25648">
        <ele>438.9</ele>
        <time>2018-11-28T14:00:31Z</time>
      </trkpt>
      <trkpt lat="43.58608" lon="6.25661">
        <ele>438.7</ele>
        <time>2018-11-28T14:00:40Z</time>
      </trkpt>
      <trkpt lat="43.58608" lon="6.25674">
        <ele>438.6</ele>
        <time>2018-11-28T14:00:49Z</time>
      </trkpt>
      <trkpt lat="43.58609" lon="6.25687">
        <ele>438.4</ele>
        <time>2018-11-28T14:00:59Z</time>
      </trkpt>
      <trkpt lat="43.58615" lon="6.25698">
        <ele>438.5</ele>
        <time>2018-11-28T14:01:10Z</time>
      </trkpt>
      <trkpt lat="43.58619" lon="6.2571">
        <ele>438.6</ele>
        <time>2018-11-28T14:01:21Z</time>
      </trkpt>
      <trkpt lat="43.58625" lon="6.2572">
        <ele>438.7</ele>
        <time>2018-11-28T14:01:29Z</time>
      </trkpt>
      <trkpt lat="43.58631" lon="6.25733">
        <ele>438.8</ele>
        <time>2018-11-28T14:01:37Z</time>
      </trkpt>
      <trkpt lat="43.58639" lon="6.25741">
        <ele>438.9</ele>
        <time>2018-11-28T14:01:45Z</time>
      </trkpt>
      <trkpt lat="43.58648" lon="6.25743">
        <ele>439.1</ele>
        <time>2018-11-28T14:01:53Z</time>
      </trkpt>
      <trkpt lat="43.58655" lon="6.25751">
        <ele>439.2</ele>
        <time>2018-11-28T14:02:04Z</time>
      </trkpt>
      <trkpt lat="43.58663" lon="6.2576">
        <ele>439.1</ele>
        <time>2018-11-28T14:02:12Z</time>
      </trkpt>
      <trkpt lat="43.58668" lon="6.2577">
        <ele>439.1</ele>
        <time>2018-11-28T14:02:23Z</time>
      </trkpt>
      <trkpt lat="43.58676" lon="6.25778">
        <ele>439</ele>
        <time>2018-11-28T14:02:31Z</time>
      </trkpt>
      <trkpt lat="43.58681" lon="6.2579">
        <ele>438.9</ele>
        <time>2018-11-28T14:02:40Z</time>
      </trkpt>
      <trkpt lat="43.58683" lon="6.25803">
        <ele>438.7</ele>
        <time>2018-11-28T14:02:50Z</time>
      </trkpt>
      <trkpt lat="43.58686" lon="6.25815">
        <ele>438.5</ele>
        <time>2018-11-28T14:02:59Z</time>
      </trkpt>
      <trkpt lat="43.58689" lon="6.25827">
        <ele>438.2</ele>
        <time>2018-11-28T14:03:06Z</time>
      </trkpt>
      <trkpt lat="43.58694" lon="6.25841">
        <ele>438</ele>
        <time>2018-11-28T14:03:12Z</time>
      </trkpt>
      <trkpt lat="43.587" lon="6.25851">
        <ele>437.8</ele>
        <time>2018-11-28T14:03:23Z</time>
      </trkpt>
      <trkpt lat="43.58708" lon="6.25857">
        <ele>437.6</ele>
        <time>2018-11-28T14:03:34Z</time>
      </trkpt>
      <trkpt lat="43.58706" lon="6.25869">
        <ele>437.7</ele>
        <time>2018-11-28T14:03:46Z</time>
      </trkpt>
      <trkpt lat="43.5871" lon="6.25881">
        <ele>437.9</ele>
        <time>2018-11-28T14:03:57Z</time>
      </trkpt>
      <trkpt lat="43.58716" lon="6.25891">
        <ele>438.2</ele>
        <time>2018-11-28T14:04:05Z</time>
      </trkpt>
      <trkpt lat="43.58725" lon="6.25898">
        <ele>438.4</ele>
        <time>2018-11-28T14:04:12Z</time>
      </trkpt>
      <trkpt lat="43.58734" lon="6.25903">
        <ele>438.5</ele>
        <time>2018-11-28T14:04:19Z</time>
      </trkpt>
      <trkpt lat="43.58742" lon="6.25911">
        <ele>438.6</ele>
        <time>2018-11-28T14:04:29Z</time>
      </trkpt>
      <trkpt lat="43.58747" lon="6.25922">
        <ele>438.5</ele>
        <time>2018-11-28T14:04:39Z</time>
      </trkpt>
      <trkpt lat="43.58754" lon="6.25931">
        <ele>438.4</ele>
        <time>2018-11-28T14:04:47Z</time>
      </trkpt>
      <trkpt lat="43.58758" lon="6.25942">
        <ele>438.2</ele>
        <time>2018-11-28T14:04:55Z</time>
      </trkpt>
      <trkpt lat="43.58759" lon="6.25955">
        <ele>437.9</ele>
        <time>2018-11-28T14:05:03Z</time>
      </trkpt>
      <trkpt lat="43.58769" lon="6.25959">
        <ele>437.5</ele>
        <time>2018-11-28T14:05:13Z</time>
      </trkpt>
      <trkpt lat="43.58778" lon="6.25963">
        <ele>437.3</ele>
        <time>2018-11-28T14:05:21Z</time>
      </trkpt>
      <trkpt lat="43.58786" lon="6.25971">
        <ele>437.1</ele>
        <time>2018-11-28T14:05:31Z</time>
      </trkpt>
      <trkpt lat="43.58797" lon="6.25972">
        <ele>436.7</ele>
        <time>2018-11-28T14:05:48Z</time>
      </trkpt>
      <trkpt lat="43.58806" lon="6.25974">
        <ele>436.5</ele>
        <time>2018-11-28T14:05:55Z</time>
      </trkpt>
      <trkpt lat="43.58816" lon="6.25972">
        <ele>436.4</ele>
        <time>2018-11-28T14:06:04Z</time>
      </trkpt>
      <trkpt lat="43.58824" lon="6.25968">
        <ele>436.4</ele>
        <time>2018-11-28T14:06:13Z</time>
      </trkpt>
      <trkpt lat="43.58831" lon="6.25978">
        <ele>436.7</ele>
        <time>2018-11-28T14:06:27Z</time>
      </trkpt>
      <trkpt lat="43.58841" lon="6.25979">
        <ele>436.7</ele>
        <time>2018-11-28T14:06:41Z</time>
      </trkpt>
      <trkpt lat="43.58848" lon="6.25986">
        <ele>436.8</ele>
        <time>2018-11-28T14:06:52Z</time>
      </trkpt>
      <trkpt lat="43.58857" lon="6.25983">
        <ele>436.9</ele>
        <time>2018-11-28T14:07:01Z</time>
      </trkpt>
      <trkpt lat="43.58866" lon="6.2598">
        <ele>437.1</ele>
        <time>2018-11-28T14:07:08Z</time>
      </trkpt>
      <trkpt lat="43.58876" lon="6.25979">
        <ele>437.5</ele>
        <time>2018-11-28T14:07:18Z</time>
      </trkpt>
      <trkpt lat="43.58882" lon="6.25988">
        <ele>438</ele>
        <time>2018-11-28T14:07:28Z</time>
      </trkpt>
      <trkpt lat="43.58887" lon="6.25999">
        <ele>438.2</ele>
        <time>2018-11-28T14:07:37Z</time>
      </trkpt>
      <trkpt lat="43.58892" lon="6.2601">
        <ele>438.6</ele>
        <time>2018-11-28T14:07:47Z</time>
      </trkpt>
      <trkpt lat="43.58901" lon="6.26016">
        <ele>438.9</ele>
        <time>2018-11-28T14:07:55Z</time>
      </trkpt>
      <trkpt lat="43.58911" lon="6.26017">
        <ele>439.2</ele>
        <time>2018-11-28T14:08:02Z</time>
      </trkpt>
      <trkpt lat="43.5892" lon="6.26015">
        <ele>439.5</ele>
        <time>2018-11-28T14:08:09Z</time>
      </trkpt>
      <trkpt lat="43.58928" lon="6.2602">
        <ele>439.9</ele>
        <time>2018-11-28T14:08:17Z</time>
      </trkpt>
      <trkpt lat="43.58936" lon="6.26029">
        <ele>440.4</ele>
        <time>2018-11-28T14:08:28Z</time>
      </trkpt>
      <trkpt lat="43.58942" lon="6.26039">
        <ele>440.8</ele>
        <time>2018-11-28T14:08:36Z</time>
      </trkpt>
      <trkpt lat="43.58951" lon="6.26045">
        <ele>441.2</ele>
        <time>2018-11-28T14:08:43Z</time>
      </trkpt>
      <trkpt lat="43.58955" lon="6.26056">
        <ele>441.8</ele>
        <time>2018-11-28T14:08:55Z</time>
      </trkpt>
      <trkpt lat="43.58956" lon="6.26069">
        <ele>442.2</ele>
        <time>2018-11-28T14:09:05Z</time>
      </trkpt>
      <trkpt lat="43.58958" lon="6.26081">
        <ele>442.8</ele>
        <time>2018-11-28T14:09:16Z</time>
      </trkpt>
      <trkpt lat="43.58964" lon="6.26091">
        <ele>443.3</ele>
        <time>2018-11-28T14:09:25Z</time>
      </trkpt>
      <trkpt lat="43.58971" lon="6.261">
        <ele>443.6</ele>
        <time>2018-11-28T14:09:32Z</time>
      </trkpt>
      <trkpt lat="43.58979" lon="6.26106">
        <ele>443.8</ele>
        <time>2018-11-28T14:09:40Z</time>
      </trkpt>
      <trkpt lat="43.58987" lon="6.26114">
        <ele>444</ele>
        <time>2018-11-28T14:09:47Z</time>
      </trkpt>
      <trkpt lat="43.58996" lon="6.2612">
        <ele>444.1</ele>
        <time>2018-11-28T14:09:56Z</time>
      </trkpt>
      <trkpt lat="43.59003" lon="6.26128">
        <ele>444.1</ele>
        <time>2018-11-28T14:10:05Z</time>
      </trkpt>
      <trkpt lat="43.59012" lon="6.26129">
        <ele>444.1</ele>
        <time>2018-11-28T14:10:12Z</time>
      </trkpt>
      <trkpt lat="43.59015" lon="6.26141">
        <ele>443.3</ele>
        <time>2018-11-28T14:11:16Z</time>
      </trkpt>
      <trkpt lat="43.59008" lon="6.26149">
        <ele>443.1</ele>
        <time>2018-11-28T14:11:27Z</time>
      </trkpt>
      <trkpt lat="43.59002" lon="6.26159">
        <ele>442.8</ele>
        <time>2018-11-28T14:11:36Z</time>
      </trkpt>
      <trkpt lat="43.58996" lon="6.26168">
        <ele>442.5</ele>
        <time>2018-11-28T14:11:46Z</time>
      </trkpt>
      <trkpt lat="43.58989" lon="6.26176">
        <ele>441.8</ele>
        <time>2018-11-28T14:12:12Z</time>
      </trkpt>
      <trkpt lat="43.58985" lon="6.26189">
        <ele>440.8</ele>
        <time>2018-11-28T14:12:33Z</time>
      </trkpt>
      <trkpt lat="43.58979" lon="6.26198">
        <ele>440.1</ele>
        <time>2018-11-28T14:12:46Z</time>
      </trkpt>
      <trkpt lat="43.58973" lon="6.26208">
        <ele>439.5</ele>
        <time>2018-11-28T14:12:55Z</time>
      </trkpt>
      <trkpt lat="43.58968" lon="6.2622">
        <ele>438.7</ele>
        <time>2018-11-28T14:13:05Z</time>
      </trkpt>
      <trkpt lat="43.58962" lon="6.26231">
        <ele>438.1</ele>
        <time>2018-11-28T14:13:15Z</time>
      </trkpt>
      <trkpt lat="43.58963" lon="6.26243">
        <ele>437.6</ele>
        <time>2018-11-28T14:13:24Z</time>
      </trkpt>
      <trkpt lat="43.5897" lon="6.26252">
        <ele>437.2</ele>
        <time>2018-11-28T14:13:34Z</time>
      </trkpt>
      <trkpt lat="43.58979" lon="6.26256">
        <ele>437</ele>
        <time>2018-11-28T14:13:44Z</time>
      </trkpt>
      <trkpt lat="43.58988" lon="6.26255">
        <ele>437</ele>
        <time>2018-11-28T14:13:54Z</time>
      </trkpt>
      <trkpt lat="43.58997" lon="6.26259">
        <ele>437</ele>
        <time>2018-11-28T14:14:03Z</time>
      </trkpt>
      <trkpt lat="43.59001" lon="6.26271">
        <ele>437.1</ele>
        <time>2018-11-28T14:14:14Z</time>
      </trkpt>
      <trkpt lat="43.59" lon="6.26284">
        <ele>437.2</ele>
        <time>2018-11-28T14:14:24Z</time>
      </trkpt>
      <trkpt lat="43.59" lon="6.26298">
        <ele>437.2</ele>
        <time>2018-11-28T14:14:33Z</time>
      </trkpt>
      <trkpt lat="43.59005" lon="6.2631">
        <ele>437.2</ele>
        <time>2018-11-28T14:14:42Z</time>
      </trkpt>
      <trkpt lat="43.59012" lon="6.26319">
        <ele>437.2</ele>
        <time>2018-11-28T14:14:51Z</time>
      </trkpt>
      <trkpt lat="43.59019" lon="6.26327">
        <ele>437.2</ele>
        <time>2018-11-28T14:15:00Z</time>
      </trkpt>
      <trkpt lat="43.59027" lon="6.26334">
        <ele>437.2</ele>
        <time>2018-11-28T14:15:09Z</time>
      </trkpt>
      <trkpt lat="43.59036" lon="6.26337">
        <ele>437.2</ele>
        <time>2018-11-28T14:15:17Z</time>
      </trkpt>
      <trkpt lat="43.59046" lon="6.26338">
        <ele>437.2</ele>
        <time>2018-11-28T14:15:25Z</time>
      </trkpt>
      <trkpt lat="43.59052" lon="6.26347">
        <ele>437.4</ele>
        <time>2018-11-28T14:15:39Z</time>
      </trkpt>
      <trkpt lat="43.59045" lon="6.26354">
        <ele>437.6</ele>
        <time>2018-11-28T14:15:49Z</time>
      </trkpt>
      <trkpt lat="43.59041" lon="6.26366">
        <ele>437.7</ele>
        <time>2018-11-28T14:15:58Z</time>
      </trkpt>
      <trkpt lat="43.59041" lon="6.2638">
        <ele>437.8</ele>
        <time>2018-11-28T14:16:07Z</time>
      </trkpt>
      <trkpt lat="43.59044" lon="6.26392">
        <ele>437.9</ele>
        <time>2018-11-28T14:16:16Z</time>
      </trkpt>
      <trkpt lat="43.59043" lon="6.26405">
        <ele>438.3</ele>
        <time>2018-11-28T14:16:25Z</time>
      </trkpt>
      <trkpt lat="43.59043" lon="6.26418">
        <ele>438.8</ele>
        <time>2018-11-28T14:16:35Z</time>
      </trkpt>
      <trkpt lat="43.59044" lon="6.26432">
        <ele>439.3</ele>
        <time>2018-11-28T14:16:45Z</time>
      </trkpt>
      <trkpt lat="43.59046" lon="6.26444">
        <ele>439.9</ele>
        <time>2018-11-28T14:16:55Z</time>
      </trkpt>
      <trkpt lat="43.59054" lon="6.2645">
        <ele>440.5</ele>
        <time>2018-11-28T14:17:03Z</time>
      </trkpt>
      <trkpt lat="43.59062" lon="6.26457">
        <ele>441.3</ele>
        <time>2018-11-28T14:17:14Z</time>
      </trkpt>
      <trkpt lat="43.59066" lon="6.26469">
        <ele>442.1</ele>
        <time>2018-11-28T14:17:24Z</time>
      </trkpt>
      <trkpt lat="43.59067" lon="6.26481">
        <ele>442.9</ele>
        <time>2018-11-28T14:17:33Z</time>
      </trkpt>
      <trkpt lat="43.59069" lon="6.26493">
        <ele>443.7</ele>
        <time>2018-11-28T14:17:43Z</time>
      </trkpt>
      <trkpt lat="43.59075" lon="6.26503">
        <ele>444.4</ele>
        <time>2018-11-28T14:17:52Z</time>
      </trkpt>
      <trkpt lat="43.59085" lon="6.26508">
        <ele>444.9</ele>
        <time>2018-11-28T14:17:59Z</time>
      </trkpt>
      <trkpt lat="43.59091" lon="6.26518">
        <ele>445.8</ele>
        <time>2018-11-28T14:18:10Z</time>
      </trkpt>
      <trkpt lat="43.59095" lon="6.26529">
        <ele>446.5</ele>
        <time>2018-11-28T14:18:22Z</time>
      </trkpt>
      <trkpt lat="43.59097" lon="6.26542">
        <ele>447.1</ele>
        <time>2018-11-28T14:18:32Z</time>
      </trkpt>
      <trkpt lat="43.591" lon="6.26556">
        <ele>447.7</ele>
        <time>2018-11-28T14:18:41Z</time>
      </trkpt>
      <trkpt lat="43.59106" lon="6.26566">
        <ele>448.1</ele>
        <time>2018-11-28T14:18:49Z</time>
      </trkpt>
      <trkpt lat="43.59112" lon="6.26575">
        <ele>448.5</ele>
        <time>2018-11-28T14:18:59Z</time>
      </trkpt>
      <trkpt lat="43.59115" lon="6.26588">
        <ele>449.3</ele>
        <time>2018-11-28T14:19:10Z</time>
      </trkpt>
      <trkpt lat="43.59115" lon="6.26601">
        <ele>449.9</ele>
        <time>2018-11-28T14:19:20Z</time>
      </trkpt>
      <trkpt lat="43.59117" lon="6.26615">
        <ele>450.3</ele>
        <time>2018-11-28T14:19:30Z</time>
      </trkpt>
      <trkpt lat="43.59118" lon="6.26627">
        <ele>450.5</ele>
        <time>2018-11-28T14:19:39Z</time>
      </trkpt>
      <trkpt lat="43.59122" lon="6.2664">
        <ele>450.7</ele>
        <time>2018-11-28T14:19:49Z</time>
      </trkpt>
      <trkpt lat="43.59126" lon="6.26652">
        <ele>451.2</ele>
        <time>2018-11-28T14:19:59Z</time>
      </trkpt>
      <trkpt lat="43.59127" lon="6.26666">
        <ele>451.5</ele>
        <time>2018-11-28T14:20:09Z</time>
      </trkpt>
      <trkpt lat="43.59128" lon="6.26679">
        <ele>452</ele>
        <time>2018-11-28T14:20:20Z</time>
      </trkpt>
      <trkpt lat="43.59135" lon="6.26688">
        <ele>452.6</ele>
        <time>2018-11-28T14:20:29Z</time>
      </trkpt>
      <trkpt lat="43.59142" lon="6.26696">
        <ele>453.6</ele>
        <time>2018-11-28T14:20:38Z</time>
      </trkpt>
      <trkpt lat="43.59148" lon="6.26706">
        <ele>454.6</ele>
        <time>2018-11-28T14:20:49Z</time>
      </trkpt>
      <trkpt lat="43.59156" lon="6.26712">
        <ele>455.3</ele>
        <time>2018-11-28T14:20:56Z</time>
      </trkpt>
      <trkpt lat="43.59157" lon="6.26725">
        <ele>456.4</ele>
        <time>2018-11-28T14:21:06Z</time>
      </trkpt>
      <trkpt lat="43.59155" lon="6.26737">
        <ele>457.3</ele>
        <time>2018-11-28T14:21:17Z</time>
      </trkpt>
      <trkpt lat="43.59154" lon="6.2675">
        <ele>458.1</ele>
        <time>2018-11-28T14:21:26Z</time>
      </trkpt>
      <trkpt lat="43.59159" lon="6.26762">
        <ele>459.4</ele>
        <time>2018-11-28T14:21:38Z</time>
      </trkpt>
      <trkpt lat="43.59162" lon="6.26774">
        <ele>460.7</ele>
        <time>2018-11-28T14:21:48Z</time>
      </trkpt>
      <trkpt lat="43.59165" lon="6.26787">
        <ele>462.1</ele>
        <time>2018-11-28T14:21:58Z</time>
      </trkpt>
      <trkpt lat="43.59168" lon="6.26799">
        <ele>464.1</ele>
        <time>2018-11-28T14:22:16Z</time>
      </trkpt>
      <trkpt lat="43.59175" lon="6.26807">
        <ele>465.5</ele>
        <time>2018-11-28T14:24:23Z</time>
      </trkpt>
      <trkpt lat="43.5918" lon="6.26819">
        <ele>465.6</ele>
        <time>2018-11-28T14:24:34Z</time>
      </trkpt>
      <trkpt lat="43.59185" lon="6.2683">
        <ele>465.9</ele>
        <time>2018-11-28T14:24:44Z</time>
      </trkpt>
      <trkpt lat="43.59191" lon="6.26839">
        <ele>466.2</ele>
        <time>2018-11-28T14:24:53Z</time>
      </trkpt>
      <trkpt lat="43.592" lon="6.26846">
        <ele>466.4</ele>
        <time>2018-11-28T14:25:01Z</time>
      </trkpt>
      <trkpt lat="43.5921" lon="6.26848">
        <ele>466.4</ele>
        <time>2018-11-28T14:25:07Z</time>
      </trkpt>
      <trkpt lat="43.59219" lon="6.26851">
        <ele>466.2</ele>
        <time>2018-11-28T14:25:14Z</time>
      </trkpt>
      <trkpt lat="43.59229" lon="6.26854">
        <ele>466</ele>
        <time>2018-11-28T14:25:23Z</time>
      </trkpt>
      <trkpt lat="43.59236" lon="6.26861">
        <ele>466</ele>
        <time>2018-11-28T14:25:31Z</time>
      </trkpt>
      <trkpt lat="43.5924" lon="6.26873">
        <ele>465.8</ele>
        <time>2018-11-28T14:25:38Z</time>
      </trkpt>
      <trkpt lat="43.59237" lon="6.26885">
        <ele>465.8</ele>
        <time>2018-11-28T14:25:48Z</time>
      </trkpt>
      <trkpt lat="43.59232" lon="6.26897">
        <ele>466.2</ele>
        <time>2018-11-28T14:25:56Z</time>
      </trkpt>
      <trkpt lat="43.59231" lon="6.2691">
        <ele>466.6</ele>
        <time>2018-11-28T14:26:05Z</time>
      </trkpt>
      <trkpt lat="43.59225" lon="6.26921">
        <ele>466.9</ele>
        <time>2018-11-28T14:26:13Z</time>
      </trkpt>
      <trkpt lat="43.59216" lon="6.26927">
        <ele>467.1</ele>
        <time>2018-11-28T14:26:20Z</time>
      </trkpt>
      <trkpt lat="43.59207" lon="6.26934">
        <ele>467.4</ele>
        <time>2018-11-28T14:26:30Z</time>
      </trkpt>
      <trkpt lat="43.59199" lon="6.26942">
        <ele>467.9</ele>
        <time>2018-11-28T14:26:39Z</time>
      </trkpt>
      <trkpt lat="43.59192" lon="6.26949">
        <ele>468.4</ele>
        <time>2018-11-28T14:26:48Z</time>
      </trkpt>
      <trkpt lat="43.59185" lon="6.26958">
        <ele>469.3</ele>
        <time>2018-11-28T14:26:59Z</time>
      </trkpt>
      <trkpt lat="43.59182" lon="6.26971">
        <ele>470.3</ele>
        <time>2018-11-28T14:27:09Z</time>
      </trkpt>
      <trkpt lat="43.59179" lon="6.26983">
        <ele>471.1</ele>
        <time>2018-11-28T14:27:16Z</time>
      </trkpt>
      <trkpt lat="43.59176" lon="6.26995">
        <ele>472</ele>
        <time>2018-11-28T14:27:24Z</time>
      </trkpt>
      <trkpt lat="43.59175" lon="6.27007">
        <ele>472.9</ele>
        <time>2018-11-28T14:27:33Z</time>
      </trkpt>
      <trkpt lat="43.59176" lon="6.2702">
        <ele>473.7</ele>
        <time>2018-11-28T14:27:41Z</time>
      </trkpt>
      <trkpt lat="43.59177" lon="6.27034">
        <ele>474.5</ele>
        <time>2018-11-28T14:27:49Z</time>
      </trkpt>
      <trkpt lat="43.59178" lon="6.27047">
        <ele>475.2</ele>
        <time>2018-11-28T14:27:58Z</time>
      </trkpt>
      <trkpt lat="43.59181" lon="6.27059">
        <ele>475.9</ele>
        <time>2018-11-28T14:28:06Z</time>
      </trkpt>
      <trkpt lat="43.59187" lon="6.27069">
        <ele>477.1</ele>
        <time>2018-11-28T14:28:17Z</time>
      </trkpt>
      <trkpt lat="43.59194" lon="6.27077">
        <ele>479.1</ele>
        <time>2018-11-28T14:28:31Z</time>
      </trkpt>
      <trkpt lat="43.59198" lon="6.27089">
        <ele>480.6</ele>
        <time>2018-11-28T14:28:44Z</time>
      </trkpt>
      <trkpt lat="43.59203" lon="6.27101">
        <ele>481.8</ele>
        <time>2018-11-28T14:28:55Z</time>
      </trkpt>
      <trkpt lat="43.5921" lon="6.27109">
        <ele>483.2</ele>
        <time>2018-11-28T14:29:27Z</time>
      </trkpt>
      <trkpt lat="43.59216" lon="6.27119">
        <ele>483.8</ele>
        <time>2018-11-28T14:29:45Z</time>
      </trkpt>
      <trkpt lat="43.5923" lon="6.27122">
        <ele>486</ele>
        <time>2018-11-28T14:30:26Z</time>
      </trkpt>
      <trkpt lat="43.59239" lon="6.27128">
        <ele>487.1</ele>
        <time>2018-11-28T14:30:43Z</time>
      </trkpt>
      <trkpt lat="43.59247" lon="6.27134">
        <ele>488.1</ele>
        <time>2018-11-28T14:30:53Z</time>
      </trkpt>
      <trkpt lat="43.59252" lon="6.27145">
        <ele>489.4</ele>
        <time>2018-11-28T14:31:04Z</time>
      </trkpt>
      <trkpt lat="43.5926" lon="6.27151">
        <ele>490.5</ele>
        <time>2018-11-28T14:31:13Z</time>
      </trkpt>
      <trkpt lat="43.59268" lon="6.27158">
        <ele>491.9</ele>
        <time>2018-11-28T14:31:23Z</time>
      </trkpt>
      <trkpt lat="43.59278" lon="6.27161">
        <ele>495.3</ele>
        <time>2018-11-28T14:32:11Z</time>
      </trkpt>
      <trkpt lat="43.59286" lon="6.27167">
        <ele>496.2</ele>
        <time>2018-11-28T14:34:39Z</time>
      </trkpt>
      <trkpt lat="43.59287" lon="6.2718">
        <ele>495.7</ele>
        <time>2018-11-28T14:35:18Z</time>
      </trkpt>
      <trkpt lat="43.59296" lon="6.27184">
        <ele>494.5</ele>
        <time>2018-11-28T14:35:34Z</time>
      </trkpt>
      <trkpt lat="43.59305" lon="6.27184">
        <ele>493.9</ele>
        <time>2018-11-28T14:35:44Z</time>
      </trkpt>
      <trkpt lat="43.59314" lon="6.27188">
        <ele>493.3</ele>
        <time>2018-11-28T14:36:02Z</time>
      </trkpt>
      <trkpt lat="43.59324" lon="6.2719">
        <ele>492.8</ele>
        <time>2018-11-28T14:36:12Z</time>
      </trkpt>
      <trkpt lat="43.59333" lon="6.27192">
        <ele>492.3</ele>
        <time>2018-11-28T14:36:22Z</time>
      </trkpt>
      <trkpt lat="43.59343" lon="6.27195">
        <ele>492</ele>
        <time>2018-11-28T14:36:33Z</time>
      </trkpt>
      <trkpt lat="43.59353" lon="6.27198">
        <ele>491.8</ele>
        <time>2018-11-28T14:36:43Z</time>
      </trkpt>
      <trkpt lat="43.59359" lon="6.27207">
        <ele>491.6</ele>
        <time>2018-11-28T14:36:55Z</time>
      </trkpt>
      <trkpt lat="43.59368" lon="6.27212">
        <ele>491.4</ele>
        <time>2018-11-28T14:37:04Z</time>
      </trkpt>
      <trkpt lat="43.59376" lon="6.27218">
        <ele>491.1</ele>
        <time>2018-11-28T14:37:15Z</time>
      </trkpt>
      <trkpt lat="43.59383" lon="6.27226">
        <ele>490.9</ele>
        <time>2018-11-28T14:37:24Z</time>
      </trkpt>
      <trkpt lat="43.5939" lon="6.27237">
        <ele>490.4</ele>
        <time>2018-11-28T14:37:35Z</time>
      </trkpt>
      <trkpt lat="43.59396" lon="6.27246">
        <ele>489.7</ele>
        <time>2018-11-28T14:37:45Z</time>
      </trkpt>
      <trkpt lat="43.59401" lon="6.27257">
        <ele>489</ele>
        <time>2018-11-28T14:37:56Z</time>
      </trkpt>
      <trkpt lat="43.59409" lon="6.27265">
        <ele>488.1</ele>
        <time>2018-11-28T14:38:06Z</time>
      </trkpt>
      <trkpt lat="43.59418" lon="6.27262">
        <ele>487.6</ele>
        <time>2018-11-28T14:38:14Z</time>
      </trkpt>
      <trkpt lat="43.59426" lon="6.27255">
        <ele>487.5</ele>
        <time>2018-11-28T14:38:22Z</time>
      </trkpt>
      <trkpt lat="43.59434" lon="6.27248">
        <ele>487.8</ele>
        <time>2018-11-28T14:38:31Z</time>
      </trkpt>
      <trkpt lat="43.59442" lon="6.27241">
        <ele>488.4</ele>
        <time>2018-11-28T14:38:41Z</time>
      </trkpt>
      <trkpt lat="43.5945" lon="6.27235">
        <ele>489.2</ele>
        <time>2018-11-28T14:38:51Z</time>
      </trkpt>
      <trkpt lat="43.59459" lon="6.27229">
        <ele>489.8</ele>
        <time>2018-11-28T14:39:00Z</time>
      </trkpt>
      <trkpt lat="43.59468" lon="6.27231">
        <ele>490.2</ele>
        <time>2018-11-28T14:39:09Z</time>
      </trkpt>
      <trkpt lat="43.59478" lon="6.2723">
        <ele>490.5</ele>
        <time>2018-11-28T14:39:20Z</time>
      </trkpt>
      <trkpt lat="43.59486" lon="6.27237">
        <ele>490.6</ele>
        <time>2018-11-28T14:39:31Z</time>
      </trkpt>
      <trkpt lat="43.59493" lon="6.27245">
        <ele>490.6</ele>
        <time>2018-11-28T14:39:41Z</time>
      </trkpt>
      <trkpt lat="43.59501" lon="6.27252">
        <ele>490.7</ele>
        <time>2018-11-28T14:39:49Z</time>
      </trkpt>
      <trkpt lat="43.5951" lon="6.27255">
        <ele>490.8</ele>
        <time>2018-11-28T14:40:08Z</time>
      </trkpt>
      <trkpt lat="43.59517" lon="6.27264">
        <ele>490.8</ele>
        <time>2018-11-28T14:40:16Z</time>
      </trkpt>
      <trkpt lat="43.59526" lon="6.2727">
        <ele>490.9</ele>
        <time>2018-11-28T14:40:24Z</time>
      </trkpt>
      <trkpt lat="43.59534" lon="6.27276">
        <ele>491.4</ele>
        <time>2018-11-28T14:40:41Z</time>
      </trkpt>
      <trkpt lat="43.59544" lon="6.27275">
        <ele>492.1</ele>
        <time>2018-11-28T14:42:24Z</time>
      </trkpt>
      <trkpt lat="43.59553" lon="6.27275">
        <ele>492.6</ele>
        <time>2018-11-28T14:42:35Z</time>
      </trkpt>
      <trkpt lat="43.5956" lon="6.27284">
        <ele>493.1</ele>
        <time>2018-11-28T14:42:49Z</time>
      </trkpt>
      <trkpt lat="43.59564" lon="6.27295">
        <ele>493.4</ele>
        <time>2018-11-28T14:42:59Z</time>
      </trkpt>
      <trkpt lat="43.59564" lon="6.27308">
        <ele>493.5</ele>
        <time>2018-11-28T14:43:08Z</time>
      </trkpt>
      <trkpt lat="43.59569" lon="6.2732">
        <ele>493.6</ele>
        <time>2018-11-28T14:43:19Z</time>
      </trkpt>
      <trkpt lat="43.5957" lon="6.27344">
        <ele>495.3</ele>
        <time>2018-11-28T14:47:17Z</time>
      </trkpt>
      <trkpt lat="43.59566" lon="6.27355">
        <ele>495.3</ele>
        <time>2018-11-28T14:47:30Z</time>
      </trkpt>
      <trkpt lat="43.59568" lon="6.27368">
        <ele>495.2</ele>
        <time>2018-11-28T14:47:39Z</time>
      </trkpt>
      <trkpt lat="43.59561" lon="6.27377">
        <ele>495.1</ele>
        <time>2018-11-28T14:47:51Z</time>
      </trkpt>
      <trkpt lat="43.59554" lon="6.27386">
        <ele>495.2</ele>
        <time>2018-11-28T14:48:01Z</time>
      </trkpt>
      <trkpt lat="43.59549" lon="6.27397">
        <ele>495.6</ele>
        <time>2018-11-28T14:48:14Z</time>
      </trkpt>
      <trkpt lat="43.59542" lon="6.27406">
        <ele>496.1</ele>
        <time>2018-11-28T14:48:27Z</time>
      </trkpt>
      <trkpt lat="43.59534" lon="6.27413">
        <ele>496.4</ele>
        <time>2018-11-28T14:48:35Z</time>
      </trkpt>
      <trkpt lat="43.59526" lon="6.27419">
        <ele>496.6</ele>
        <time>2018-11-28T14:48:44Z</time>
      </trkpt>
      <trkpt lat="43.59516" lon="6.27423">
        <ele>496.8</ele>
        <time>2018-11-28T14:48:54Z</time>
      </trkpt>
      <trkpt lat="43.59507" lon="6.27426">
        <ele>497.2</ele>
        <time>2018-11-28T14:49:04Z</time>
      </trkpt>
      <trkpt lat="43.59502" lon="6.27437">
        <ele>497.4</ele>
        <time>2018-11-28T14:49:13Z</time>
      </trkpt>
      <trkpt lat="43.59493" lon="6.27439">
        <ele>497.5</ele>
        <time>2018-11-28T14:49:21Z</time>
      </trkpt>
      <trkpt lat="43.59483" lon="6.2744">
        <ele>497.6</ele>
        <time>2018-11-28T14:49:29Z</time>
      </trkpt>
      <trkpt lat="43.59474" lon="6.27445">
        <ele>497.5</ele>
        <time>2018-11-28T14:49:38Z</time>
      </trkpt>
      <trkpt lat="43.59467" lon="6.27453">
        <ele>497.4</ele>
        <time>2018-11-28T14:49:47Z</time>
      </trkpt>
      <trkpt lat="43.59458" lon="6.27458">
        <ele>497.2</ele>
        <time>2018-11-28T14:49:57Z</time>
      </trkpt>
      <trkpt lat="43.5945" lon="6.27463">
        <ele>497</ele>
        <time>2018-11-28T14:50:07Z</time>
      </trkpt>
      <trkpt lat="43.5944" lon="6.27466">
        <ele>496.8</ele>
        <time>2018-11-28T14:50:15Z</time>
      </trkpt>
      <trkpt lat="43.59431" lon="6.27469">
        <ele>496.6</ele>
        <time>2018-11-28T14:50:24Z</time>
      </trkpt>
      <trkpt lat="43.59423" lon="6.27477">
        <ele>496.1</ele>
        <time>2018-11-28T14:50:34Z</time>
      </trkpt>
      <trkpt lat="43.59414" lon="6.27482">
        <ele>495.6</ele>
        <time>2018-11-28T14:50:42Z</time>
      </trkpt>
      <trkpt lat="43.59405" lon="6.27487">
        <ele>495.1</ele>
        <time>2018-11-28T14:50:52Z</time>
      </trkpt>
      <trkpt lat="43.59397" lon="6.2749">
        <ele>494.6</ele>
        <time>2018-11-28T14:51:04Z</time>
      </trkpt>
      <trkpt lat="43.59387" lon="6.2749">
        <ele>494</ele>
        <time>2018-11-28T14:51:26Z</time>
      </trkpt>
      <trkpt lat="43.59378" lon="6.27494">
        <ele>493.9</ele>
        <time>2018-11-28T14:51:36Z</time>
      </trkpt>
      <trkpt lat="43.59368" lon="6.27496">
        <ele>493.8</ele>
        <time>2018-11-28T14:51:45Z</time>
      </trkpt>
      <trkpt lat="43.59359" lon="6.27494">
        <ele>493.6</ele>
        <time>2018-11-28T14:51:58Z</time>
      </trkpt>
      <trkpt lat="43.5935" lon="6.27493">
        <ele>493.6</ele>
        <time>2018-11-28T14:52:10Z</time>
      </trkpt>
      <trkpt lat="43.5934" lon="6.27492">
        <ele>493.5</ele>
        <time>2018-11-28T14:52:19Z</time>
      </trkpt>
      <trkpt lat="43.59331" lon="6.27488">
        <ele>493.5</ele>
        <time>2018-11-28T14:52:30Z</time>
      </trkpt>
      <trkpt lat="43.59323" lon="6.27481">
        <ele>493.9</ele>
        <time>2018-11-28T14:52:43Z</time>
      </trkpt>
      <trkpt lat="43.59314" lon="6.27477">
        <ele>494.1</ele>
        <time>2018-11-28T14:52:52Z</time>
      </trkpt>
      <trkpt lat="43.59306" lon="6.27471">
        <ele>494.3</ele>
        <time>2018-11-28T14:53:02Z</time>
      </trkpt>
      <trkpt lat="43.59301" lon="6.2746">
        <ele>494.9</ele>
        <time>2018-11-28T14:53:23Z</time>
      </trkpt>
      <trkpt lat="43.59292" lon="6.2746">
        <ele>495.5</ele>
        <time>2018-11-28T14:53:39Z</time>
      </trkpt>
      <trkpt lat="43.59283" lon="6.27463">
        <ele>495.9</ele>
        <time>2018-11-28T14:53:54Z</time>
      </trkpt>
      <trkpt lat="43.59274" lon="6.27461">
        <ele>496.2</ele>
        <time>2018-11-28T14:54:07Z</time>
      </trkpt>
      <trkpt lat="43.59266" lon="6.27455">
        <ele>496.3</ele>
        <time>2018-11-28T14:54:20Z</time>
      </trkpt>
      <trkpt lat="43.5926" lon="6.27445">
        <ele>496.4</ele>
        <time>2018-11-28T14:54:33Z</time>
      </trkpt>
      <trkpt lat="43.59255" lon="6.27435">
        <ele>496.4</ele>
        <time>2018-11-28T14:54:52Z</time>
      </trkpt>
      <trkpt lat="43.59248" lon="6.27427">
        <ele>496.3</ele>
        <time>2018-11-28T14:55:03Z</time>
      </trkpt>
      <trkpt lat="43.59241" lon="6.27417">
        <ele>495.1</ele>
        <time>2018-11-28T14:56:01Z</time>
      </trkpt>
      <trkpt lat="43.59233" lon="6.27413">
        <ele>494.5</ele>
        <time>2018-11-28T14:56:23Z</time>
      </trkpt>
      <trkpt lat="43.59223" lon="6.27414">
        <ele>493.7</ele>
        <time>2018-11-28T14:56:39Z</time>
      </trkpt>
      <trkpt lat="43.59214" lon="6.27417">
        <ele>492.8</ele>
        <time>2018-11-28T14:57:02Z</time>
      </trkpt>
      <trkpt lat="43.59205" lon="6.2742">
        <ele>492.7</ele>
        <time>2018-11-28T14:57:14Z</time>
      </trkpt>
      <trkpt lat="43.59196" lon="6.27425">
        <ele>492.6</ele>
        <time>2018-11-28T14:57:29Z</time>
      </trkpt>
      <trkpt lat="43.59188" lon="6.27432">
        <ele>492.6</ele>
        <time>2018-11-28T14:57:39Z</time>
      </trkpt>
      <trkpt lat="43.59178" lon="6.2744">
        <ele>492.2</ele>
        <time>2018-11-28T14:58:16Z</time>
      </trkpt>
      <trkpt lat="43.5917" lon="6.27445">
        <ele>492.2</ele>
        <time>2018-11-28T14:58:26Z</time>
      </trkpt>
      <trkpt lat="43.5916" lon="6.27446">
        <ele>492</ele>
        <time>2018-11-28T14:58:34Z</time>
      </trkpt>
      <trkpt lat="43.59151" lon="6.2745">
        <ele>491.3</ele>
        <time>2018-11-28T14:58:43Z</time>
      </trkpt>
      <trkpt lat="43.59144" lon="6.27459">
        <ele>490.2</ele>
        <time>2018-11-28T14:58:53Z</time>
      </trkpt>
      <trkpt lat="43.59134" lon="6.27463">
        <ele>488.8</ele>
        <time>2018-11-28T14:59:04Z</time>
      </trkpt>
      <trkpt lat="43.59127" lon="6.27472">
        <ele>487.6</ele>
        <time>2018-11-28T14:59:13Z</time>
      </trkpt>
      <trkpt lat="43.59119" lon="6.27478">
        <ele>485.9</ele>
        <time>2018-11-28T14:59:28Z</time>
      </trkpt>
      <trkpt lat="43.5911" lon="6.27482">
        <ele>483.3</ele>
        <time>2018-11-28T14:59:53Z</time>
      </trkpt>
      <trkpt lat="43.59101" lon="6.27486">
        <ele>482.2</ele>
        <time>2018-11-28T15:00:02Z</time>
      </trkpt>
      <trkpt lat="43.59093" lon="6.27493">
        <ele>480.2</ele>
        <time>2018-11-28T15:00:16Z</time>
      </trkpt>
      <trkpt lat="43.59086" lon="6.27503">
        <ele>476.6</ele>
        <time>2018-11-28T15:00:43Z</time>
      </trkpt>
      <trkpt lat="43.59081" lon="6.27515">
        <ele>474.2</ele>
        <time>2018-11-28T15:01:01Z</time>
      </trkpt>
      <trkpt lat="43.59074" lon="6.27523">
        <ele>471.9</ele>
        <time>2018-11-28T15:01:18Z</time>
      </trkpt>
      <trkpt lat="43.59068" lon="6.27532">
        <ele>468.2</ele>
        <time>2018-11-28T15:01:50Z</time>
      </trkpt>
      <trkpt lat="43.59058" lon="6.27542">
        <ele>465.5</ele>
        <time>2018-11-28T15:02:16Z</time>
      </trkpt>
      <trkpt lat="43.5905" lon="6.2755">
        <ele>464.1</ele>
        <time>2018-11-28T15:02:26Z</time>
      </trkpt>
      <trkpt lat="43.59044" lon="6.27561">
        <ele>462.9</ele>
        <time>2018-11-28T15:02:38Z</time>
      </trkpt>
      <trkpt lat="43.59039" lon="6.27572">
        <ele>462.2</ele>
        <time>2018-11-28T15:02:47Z</time>
      </trkpt>
      <trkpt lat="43.59035" lon="6.27584">
        <ele>461.5</ele>
        <time>2018-11-28T15:02:59Z</time>
      </trkpt>
      <trkpt lat="43.59029" lon="6.27593">
        <ele>461.1</ele>
        <time>2018-11-28T15:03:07Z</time>
      </trkpt>
      <trkpt lat="43.5902" lon="6.27598">
        <ele>460.7</ele>
        <time>2018-11-28T15:03:17Z</time>
      </trkpt>
      <trkpt lat="43.59011" lon="6.27597">
        <ele>460.3</ele>
        <time>2018-11-28T15:03:26Z</time>
      </trkpt>
      <trkpt lat="43.59002" lon="6.27597">
        <ele>459.8</ele>
        <time>2018-11-28T15:03:37Z</time>
      </trkpt>
      <trkpt lat="43.58993" lon="6.27597">
        <ele>459.5</ele>
        <time>2018-11-28T15:03:47Z</time>
      </trkpt>
      <trkpt lat="43.58983" lon="6.27598">
        <ele>459.3</ele>
        <time>2018-11-28T15:03:57Z</time>
      </trkpt>
      <trkpt lat="43.58973" lon="6.276">
        <ele>459</ele>
        <time>2018-11-28T15:04:08Z</time>
      </trkpt>
      <trkpt lat="43.58965" lon="6.27606">
        <ele>458.9</ele>
        <time>2018-11-28T15:04:19Z</time>
      </trkpt>
      <trkpt lat="43.58956" lon="6.27611">
        <ele>458.8</ele>
        <time>2018-11-28T15:04:29Z</time>
      </trkpt>
      <trkpt lat="43.5895" lon="6.2762">
        <ele>458.3</ele>
        <time>2018-11-28T15:04:43Z</time>
      </trkpt>
      <trkpt lat="43.58944" lon="6.27631">
        <ele>457.9</ele>
        <time>2018-11-28T15:04:53Z</time>
      </trkpt>
      <trkpt lat="43.58939" lon="6.27642">
        <ele>457.5</ele>
        <time>2018-11-28T15:05:02Z</time>
      </trkpt>
      <trkpt lat="43.58933" lon="6.27653">
        <ele>457.1</ele>
        <time>2018-11-28T15:05:11Z</time>
      </trkpt>
      <trkpt lat="43.58928" lon="6.27665">
        <ele>456.6</ele>
        <time>2018-11-28T15:05:21Z</time>
      </trkpt>
      <trkpt lat="43.5892" lon="6.27672">
        <ele>456</ele>
        <time>2018-11-28T15:05:32Z</time>
      </trkpt>
      <trkpt lat="43.58911" lon="6.27675">
        <ele>455.5</ele>
        <time>2018-11-28T15:05:45Z</time>
      </trkpt>
      <trkpt lat="43.58902" lon="6.27675">
        <ele>454.5</ele>
        <time>2018-11-28T15:06:05Z</time>
      </trkpt>
      <trkpt lat="43.58896" lon="6.27684">
        <ele>452.5</ele>
        <time>2018-11-28T15:06:55Z</time>
      </trkpt>
      <trkpt lat="43.58883" lon="6.27679">
        <ele>450.7</ele>
        <time>2018-11-28T15:07:30Z</time>
      </trkpt>
      <trkpt lat="43.58874" lon="6.2769">
        <ele>449.5</ele>
        <time>2018-11-28T15:08:14Z</time>
      </trkpt>
      <trkpt lat="43.58877" lon="6.27702">
        <ele>449.4</ele>
        <time>2018-11-28T15:08:31Z</time>
      </trkpt>
      <trkpt lat="43.5888" lon="6.27714">
        <ele>449.3</ele>
        <time>2018-11-28T15:08:41Z</time>
      </trkpt>
      <trkpt lat="43.58874" lon="6.27724">
        <ele>448.9</ele>
        <time>2018-11-28T15:08:52Z</time>
      </trkpt>
      <trkpt lat="43.58867" lon="6.27734">
        <ele>448.5</ele>
        <time>2018-11-28T15:09:02Z</time>
      </trkpt>
      <trkpt lat="43.5886" lon="6.27744">
        <ele>448</ele>
        <time>2018-11-28T15:09:18Z</time>
      </trkpt>
      <trkpt lat="43.58852" lon="6.2775">
        <ele>447.6</ele>
        <time>2018-11-28T15:09:27Z</time>
      </trkpt>
      <trkpt lat="43.58844" lon="6.27754">
        <ele>447</ele>
        <time>2018-11-28T15:09:36Z</time>
      </trkpt>
      <trkpt lat="43.58837" lon="6.27763">
        <ele>446.5</ele>
        <time>2018-11-28T15:09:47Z</time>
      </trkpt>
      <trkpt lat="43.5883" lon="6.27771">
        <ele>446</ele>
        <time>2018-11-28T15:09:57Z</time>
      </trkpt>
      <trkpt lat="43.58821" lon="6.27776">
        <ele>445.4</ele>
        <time>2018-11-28T15:10:05Z</time>
      </trkpt>
      <trkpt lat="43.58813" lon="6.27782">
        <ele>444.8</ele>
        <time>2018-11-28T15:10:16Z</time>
      </trkpt>
      <trkpt lat="43.58805" lon="6.2779">
        <ele>444</ele>
        <time>2018-11-28T15:10:40Z</time>
      </trkpt>
      <trkpt lat="43.58798" lon="6.27801">
        <ele>442.7</ele>
        <time>2018-11-28T15:13:40Z</time>
      </trkpt>
      <trkpt lat="43.58781" lon="6.27812">
        <ele>440</ele>
        <time>2018-11-28T15:14:51Z</time>
      </trkpt>
      <trkpt lat="43.5877" lon="6.27814">
        <ele>436.3</ele>
        <time>2018-11-28T15:16:41Z</time>
      </trkpt>
      <trkpt lat="43.58768" lon="6.27826">
        <ele>434</ele>
        <time>2018-11-28T15:17:00Z</time>
      </trkpt>
      <trkpt lat="43.58772" lon="6.27838">
        <ele>432.2</ele>
        <time>2018-11-28T15:17:35Z</time>
      </trkpt>
      <trkpt lat="43.5877" lon="6.2785">
        <ele>430.7</ele>
        <time>2018-11-28T15:18:35Z</time>
      </trkpt>
      <trkpt lat="43.5876" lon="6.27858">
        <ele>427.3</ele>
        <time>2018-11-28T15:19:35Z</time>
      </trkpt>
      <trkpt lat="43.58754" lon="6.27849">
        <ele>426</ele>
        <time>2018-11-28T15:19:47Z</time>
      </trkpt>
      <trkpt lat="43.58747" lon="6.27839">
        <ele>425</ele>
        <time>2018-11-28T15:19:57Z</time>
      </trkpt>
      <trkpt lat="43.58744" lon="6.27825">
        <ele>423.9</ele>
        <time>2018-11-28T15:20:08Z</time>
      </trkpt>
      <trkpt lat="43.58745" lon="6.27811">
        <ele>422.7</ele>
        <time>2018-11-28T15:20:18Z</time>
      </trkpt>
      <trkpt lat="43.58739" lon="6.27801">
        <ele>421.1</ele>
        <time>2018-11-28T15:20:38Z</time>
      </trkpt>
      <trkpt lat="43.58729" lon="6.27798">
        <ele>420.2</ele>
        <time>2018-11-28T15:20:48Z</time>
      </trkpt>
      <trkpt lat="43.5872" lon="6.27802">
        <ele>418.7</ele>
        <time>2018-11-28T15:21:01Z</time>
      </trkpt>
      <trkpt lat="43.58712" lon="6.27808">
        <ele>417.1</ele>
        <time>2018-11-28T15:21:16Z</time>
      </trkpt>
      <trkpt lat="43.58703" lon="6.27816">
        <ele>415.9</ele>
        <time>2018-11-28T15:22:39Z</time>
      </trkpt>
      <trkpt lat="43.58697" lon="6.27806">
        <ele>415.3</ele>
        <time>2018-11-28T15:23:00Z</time>
      </trkpt>
      <trkpt lat="43.58694" lon="6.27794">
        <ele>414.1</ele>
        <time>2018-11-28T15:23:38Z</time>
      </trkpt>
      <trkpt lat="43.58699" lon="6.27783">
        <ele>414.1</ele>
        <time>2018-11-28T15:23:44Z</time>
      </trkpt>
      <trkpt lat="43.58699" lon="6.27771">
        <ele>414.1</ele>
        <time>2018-11-28T15:24:02Z</time>
      </trkpt>
      <trkpt lat="43.5871" lon="6.27776">
        <ele>414</ele>
        <time>2018-11-28T15:24:30Z</time>
      </trkpt>
      <trkpt lat="43.58715" lon="6.27765">
        <ele>413.7</ele>
        <time>2018-11-28T15:24:56Z</time>
      </trkpt>
      <trkpt lat="43.58712" lon="6.27753">
        <ele>412.3</ele>
        <time>2018-11-28T15:25:12Z</time>
      </trkpt>
      <trkpt lat="43.58722" lon="6.2775">
        <ele>411.8</ele>
        <time>2018-11-28T15:25:16Z</time>
      </trkpt>
      <trkpt lat="43.58729" lon="6.27742">
        <ele>410.8</ele>
        <time>2018-11-28T15:25:26Z</time>
      </trkpt>
      <trkpt lat="43.58734" lon="6.27732">
        <ele>410.2</ele>
        <time>2018-11-28T15:25:40Z</time>
      </trkpt>
      <trkpt lat="43.58724" lon="6.27725">
        <ele>409.5</ele>
        <time>2018-11-28T15:26:00Z</time>
      </trkpt>
      <trkpt lat="43.58714" lon="6.27724">
        <ele>407.9</ele>
        <time>2018-11-28T15:26:36Z</time>
      </trkpt>
      <trkpt lat="43.5871" lon="6.27735">
        <ele>405.8</ele>
        <time>2018-11-28T15:27:03Z</time>
      </trkpt>
      <trkpt lat="43.5871" lon="6.27748">
        <ele>404.2</ele>
        <time>2018-11-28T15:27:23Z</time>
      </trkpt>
      <trkpt lat="43.58701" lon="6.27748">
        <ele>402.6</ele>
        <time>2018-11-28T15:27:39Z</time>
      </trkpt>
      <trkpt lat="43.58697" lon="6.27737">
        <ele>400.8</ele>
        <time>2018-11-28T15:27:54Z</time>
      </trkpt>
      <trkpt lat="43.58689" lon="6.27726">
        <ele>398.9</ele>
        <time>2018-11-28T15:28:13Z</time>
      </trkpt>
      <trkpt lat="43.5868" lon="6.27726">
        <ele>397.6</ele>
        <time>2018-11-28T15:28:28Z</time>
      </trkpt>
      <trkpt lat="43.58672" lon="6.27733">
        <ele>395.4</ele>
        <time>2018-11-28T15:28:45Z</time>
      </trkpt>
      <trkpt lat="43.58672" lon="6.27746">
        <ele>393.4</ele>
        <time>2018-11-28T15:28:59Z</time>
      </trkpt>
      <trkpt lat="43.58666" lon="6.27754">
        <ele>392.5</ele>
        <time>2018-11-28T15:30:22Z</time>
      </trkpt>
      <trkpt lat="43.58669" lon="6.27766">
        <ele>392.8</ele>
        <time>2018-11-28T15:31:02Z</time>
      </trkpt>
      <trkpt lat="43.58678" lon="6.27761">
        <ele>393.2</ele>
        <time>2018-11-28T15:32:15Z</time>
      </trkpt>
      <trkpt lat="43.58677" lon="6.27748">
        <ele>393.3</ele>
        <time>2018-11-28T15:32:28Z</time>
      </trkpt>
      <trkpt lat="43.58676" lon="6.27735">
        <ele>393.4</ele>
        <time>2018-11-28T15:32:39Z</time>
      </trkpt>
      <trkpt lat="43.58668" lon="6.27729">
        <ele>393.9</ele>
        <time>2018-11-28T15:33:28Z</time>
      </trkpt>
      <trkpt lat="43.58659" lon="6.27728">
        <ele>393.9</ele>
        <time>2018-11-28T15:33:38Z</time>
      </trkpt>
      <trkpt lat="43.5865" lon="6.27726">
        <ele>393.3</ele>
        <time>2018-11-28T15:33:53Z</time>
      </trkpt>
      <trkpt lat="43.58641" lon="6.27725">
        <ele>392.6</ele>
        <time>2018-11-28T15:34:04Z</time>
      </trkpt>
      <trkpt lat="43.58631" lon="6.27729">
        <ele>391.5</ele>
        <time>2018-11-28T15:34:15Z</time>
      </trkpt>
      <trkpt lat="43.58623" lon="6.27734">
        <ele>390.2</ele>
        <time>2018-11-28T15:34:29Z</time>
      </trkpt>
      <trkpt lat="43.58614" lon="6.27733">
        <ele>387.9</ele>
        <time>2018-11-28T15:35:22Z</time>
      </trkpt>
      <trkpt lat="43.58604" lon="6.27729">
        <ele>387.7</ele>
        <time>2018-11-28T15:35:39Z</time>
      </trkpt>
      <trkpt lat="43.58596" lon="6.27724">
        <ele>386.8</ele>
        <time>2018-11-28T15:36:01Z</time>
      </trkpt>
      <trkpt lat="43.58589" lon="6.27713">
        <ele>385.2</ele>
        <time>2018-11-28T15:36:27Z</time>
      </trkpt>
      <trkpt lat="43.58582" lon="6.27705">
        <ele>384.2</ele>
        <time>2018-11-28T15:36:41Z</time>
      </trkpt>
      <trkpt lat="43.58575" lon="6.27695">
        <ele>381.6</ele>
        <time>2018-11-28T15:37:16Z</time>
      </trkpt>
      <trkpt lat="43.58565" lon="6.27695">
        <ele>378.4</ele>
        <time>2018-11-28T15:38:18Z</time>
      </trkpt>
      <trkpt lat="43.58558" lon="6.27684">
        <ele>373.6</ele>
        <time>2018-11-28T15:38:59Z</time>
      </trkpt>
      <trkpt lat="43.58547" lon="6.27664">
        <ele>368</ele>
        <time>2018-11-28T15:39:52Z</time>
      </trkpt>
      <trkpt lat="43.58539" lon="6.27657">
        <ele>362.8</ele>
        <time>2018-11-28T15:40:42Z</time>
      </trkpt>
      <trkpt lat="43.58536" lon="6.27645">
        <ele>361.1</ele>
        <time>2018-11-28T15:40:53Z</time>
      </trkpt>
      <trkpt lat="43.58535" lon="6.27631">
        <ele>359.6</ele>
        <time>2018-11-28T15:41:06Z</time>
      </trkpt>
      <trkpt lat="43.58532" lon="6.27619">
        <ele>358.8</ele>
        <time>2018-11-28T15:41:16Z</time>
      </trkpt>
      <trkpt lat="43.5853" lon="6.27606">
        <ele>358.4</ele>
        <time>2018-11-28T15:41:25Z</time>
      </trkpt>
      <trkpt lat="43.58528" lon="6.27593">
        <ele>358.3</ele>
        <time>2018-11-28T15:41:34Z</time>
      </trkpt>
      <trkpt lat="43.58523" lon="6.27582">
        <ele>358.2</ele>
        <time>2018-11-28T15:41:44Z</time>
      </trkpt>
      <trkpt lat="43.58516" lon="6.27573">
        <ele>358.3</ele>
        <time>2018-11-28T15:41:50Z</time>
      </trkpt>
      <trkpt lat="43.58509" lon="6.27566">
        <ele>358.3</ele>
        <time>2018-11-28T15:42:00Z</time>
      </trkpt>
      <trkpt lat="43.585" lon="6.27559">
        <ele>358.3</ele>
        <time>2018-11-28T15:42:10Z</time>
      </trkpt>
      <trkpt lat="43.58491" lon="6.27556">
        <ele>358</ele>
        <time>2018-11-28T15:42:26Z</time>
      </trkpt>
      <trkpt lat="43.58483" lon="6.27563">
        <ele>356.8</ele>
        <time>2018-11-28T15:42:42Z</time>
      </trkpt>
      <trkpt lat="43.58471" lon="6.27568">
        <ele>355.3</ele>
        <time>2018-11-28T15:43:05Z</time>
      </trkpt>
      <trkpt lat="43.58461" lon="6.27571">
        <ele>354.2</ele>
        <time>2018-11-28T15:43:15Z</time>
      </trkpt>
      <trkpt lat="43.58453" lon="6.27577">
        <ele>352.3</ele>
        <time>2018-11-28T15:43:27Z</time>
      </trkpt>
      <trkpt lat="43.58445" lon="6.27584">
        <ele>350.2</ele>
        <time>2018-11-28T15:43:40Z</time>
      </trkpt>
      <trkpt lat="43.58438" lon="6.27593">
        <ele>348.8</ele>
        <time>2018-11-28T15:43:52Z</time>
      </trkpt>
      <trkpt lat="43.58429" lon="6.27597">
        <ele>347.2</ele>
        <time>2018-11-28T15:44:06Z</time>
      </trkpt>
      <trkpt lat="43.5842" lon="6.27598">
        <ele>345.7</ele>
        <time>2018-11-28T15:44:20Z</time>
      </trkpt>
      <trkpt lat="43.58418" lon="6.27611">
        <ele>344.6</ele>
        <time>2018-11-28T15:44:41Z</time>
      </trkpt>
      <trkpt lat="43.58421" lon="6.27623">
        <ele>344.4</ele>
        <time>2018-11-28T15:44:50Z</time>
      </trkpt>
      <trkpt lat="43.58426" lon="6.27633">
        <ele>344.3</ele>
        <time>2018-11-28T15:45:00Z</time>
      </trkpt>
      <trkpt lat="43.58433" lon="6.27643">
        <ele>344.3</ele>
        <time>2018-11-28T15:45:11Z</time>
      </trkpt>
      <trkpt lat="43.58439" lon="6.27655">
        <ele>344.2</ele>
        <time>2018-11-28T15:45:20Z</time>
      </trkpt>
      <trkpt lat="43.58444" lon="6.27665">
        <ele>344.2</ele>
        <time>2018-11-28T15:45:29Z</time>
      </trkpt>
      <trkpt lat="43.58449" lon="6.27677">
        <ele>344.2</ele>
        <time>2018-11-28T15:45:38Z</time>
      </trkpt>
      <trkpt lat="43.58456" lon="6.27686">
        <ele>344.1</ele>
        <time>2018-11-28T15:45:52Z</time>
      </trkpt>
      <trkpt lat="43.58464" lon="6.27693">
        <ele>343.4</ele>
        <time>2018-11-28T15:46:16Z</time>
      </trkpt>
      <trkpt lat="43.5846" lon="6.27705">
        <ele>343.2</ele>
        <time>2018-11-28T15:46:24Z</time>
      </trkpt>
      <trkpt lat="43.58459" lon="6.27719">
        <ele>342.7</ele>
        <time>2018-11-28T15:46:50Z</time>
      </trkpt>
      <trkpt lat="43.58468" lon="6.27736">
        <ele>343.7</ele>
        <time>2018-11-28T15:48:56Z</time>
      </trkpt>
      <trkpt lat="43.58467" lon="6.27742">
        <ele>343</ele>
        <time>2018-11-28T15:50:33Z</time>
      </trkpt>
      <trkpt lat="43.58466" lon="6.27755">
        <ele>343.7</ele>
        <time>2018-11-28T15:50:49Z</time>
      </trkpt>
      <trkpt lat="43.58457" lon="6.27759">
        <ele>343.8</ele>
        <time>2018-11-28T15:51:02Z</time>
      </trkpt>
      <trkpt lat="43.58447" lon="6.27761">
        <ele>343.9</ele>
        <time>2018-11-28T15:51:15Z</time>
      </trkpt>
      <trkpt lat="43.58438" lon="6.27762">
        <ele>343.9</ele>
        <time>2018-11-28T15:51:24Z</time>
      </trkpt>
      <trkpt lat="43.58428" lon="6.27762">
        <ele>344</ele>
        <time>2018-11-28T15:51:33Z</time>
      </trkpt>
      <trkpt lat="43.58423" lon="6.27772">
        <ele>344.3</ele>
        <time>2018-11-28T15:51:53Z</time>
      </trkpt>
      <trkpt lat="43.5842" lon="6.27784">
        <ele>344.5</ele>
        <time>2018-11-28T15:52:01Z</time>
      </trkpt>
      <trkpt lat="43.58415" lon="6.27795">
        <ele>345</ele>
        <time>2018-11-28T15:52:14Z</time>
      </trkpt>
      <trkpt lat="43.58405" lon="6.27801">
        <ele>346.2</ele>
        <time>2018-11-28T15:53:15Z</time>
      </trkpt>
      <trkpt lat="43.58397" lon="6.27808">
        <ele>346.3</ele>
        <time>2018-11-28T15:53:30Z</time>
      </trkpt>
      <trkpt lat="43.58388" lon="6.27812">
        <ele>346.3</ele>
        <time>2018-11-28T15:53:38Z</time>
      </trkpt>
      <trkpt lat="43.58382" lon="6.27801">
        <ele>346.1</ele>
        <time>2018-11-28T15:53:52Z</time>
      </trkpt>
      <trkpt lat="43.58379" lon="6.27789">
        <ele>345.7</ele>
        <time>2018-11-28T15:54:03Z</time>
      </trkpt>
      <trkpt lat="43.58377" lon="6.27776">
        <ele>345.2</ele>
        <time>2018-11-28T15:54:12Z</time>
      </trkpt>
      <trkpt lat="43.58375" lon="6.27763">
        <ele>344.8</ele>
        <time>2018-11-28T15:54:21Z</time>
      </trkpt>
      <trkpt lat="43.58372" lon="6.2775">
        <ele>344.3</ele>
        <time>2018-11-28T15:54:29Z</time>
      </trkpt>
      <trkpt lat="43.5837" lon="6.27738">
        <ele>343.8</ele>
        <time>2018-11-28T15:54:36Z</time>
      </trkpt>
      <trkpt lat="43.58368" lon="6.27725">
        <ele>343.2</ele>
        <time>2018-11-28T15:54:45Z</time>
      </trkpt>
      <trkpt lat="43.58365" lon="6.27712">
        <ele>342.7</ele>
        <time>2018-11-28T15:54:53Z</time>
      </trkpt>
      <trkpt lat="43.58358" lon="6.27703">
        <ele>342.1</ele>
        <time>2018-11-28T15:55:01Z</time>
      </trkpt>
      <trkpt lat="43.58351" lon="6.27695">
        <ele>341.5</ele>
        <time>2018-11-28T15:55:09Z</time>
      </trkpt>
      <trkpt lat="43.58343" lon="6.27685">
        <ele>341.1</ele>
        <time>2018-11-28T15:55:16Z</time>
      </trkpt>
      <trkpt lat="43.58336" lon="6.27678">
        <ele>340.8</ele>
        <time>2018-11-28T15:55:23Z</time>
      </trkpt>
      <trkpt lat="43.58326" lon="6.27677">
        <ele>340.4</ele>
        <time>2018-11-28T15:55:32Z</time>
      </trkpt>
      <trkpt lat="43.58316" lon="6.27675">
        <ele>340.2</ele>
        <time>2018-11-28T15:55:41Z</time>
      </trkpt>
      <trkpt lat="43.58307" lon="6.27672">
        <ele>340</ele>
        <time>2018-11-28T15:55:47Z</time>
      </trkpt>
      <trkpt lat="43.58299" lon="6.27666">
        <ele>339.9</ele>
        <time>2018-11-28T15:55:55Z</time>
      </trkpt>
      <trkpt lat="43.58291" lon="6.27659">
        <ele>339.8</ele>
        <time>2018-11-28T15:56:04Z</time>
      </trkpt>
      <trkpt lat="43.58284" lon="6.2765">
        <ele>339.8</ele>
        <time>2018-11-28T15:56:13Z</time>
      </trkpt>
      <trkpt lat="43.58277" lon="6.27641">
        <ele>339.7</ele>
        <time>2018-11-28T15:56:23Z</time>
      </trkpt>
      <trkpt lat="43.58273" lon="6.2763">
        <ele>339.5</ele>
        <time>2018-11-28T15:56:33Z</time>
      </trkpt>
      <trkpt lat="43.58265" lon="6.27623">
        <ele>339.4</ele>
        <time>2018-11-28T15:56:41Z</time>
      </trkpt>
      <trkpt lat="43.58258" lon="6.27615">
        <ele>339.2</ele>
        <time>2018-11-28T15:56:50Z</time>
      </trkpt>
      <trkpt lat="43.58252" lon="6.27603">
        <ele>339.1</ele>
        <time>2018-11-28T15:56:58Z</time>
      </trkpt>
      <trkpt lat="43.58244" lon="6.27597">
        <ele>338.8</ele>
        <time>2018-11-28T15:57:18Z</time>
      </trkpt>
      <trkpt lat="43.58239" lon="6.27586">
        <ele>337.9</ele>
        <time>2018-11-28T15:57:34Z</time>
      </trkpt>
      <trkpt lat="43.58235" lon="6.27573">
        <ele>336.8</ele>
        <time>2018-11-28T15:58:25Z</time>
      </trkpt>
      <trkpt lat="43.58228" lon="6.27564">
        <ele>336.7</ele>
        <time>2018-11-28T15:59:00Z</time>
      </trkpt>
      <trkpt lat="43.58225" lon="6.2755">
        <ele>336.5</ele>
        <time>2018-11-28T15:59:13Z</time>
      </trkpt>
      <trkpt lat="43.58222" lon="6.27537">
        <ele>336.3</ele>
        <time>2018-11-28T15:59:23Z</time>
      </trkpt>
      <trkpt lat="43.58223" lon="6.27539">
        <ele>335.5</ele>
        <time>2018-11-28T16:00:19Z</time>
      </trkpt>
      <trkpt lat="43.58214" lon="6.27546">
        <ele>335.7</ele>
        <time>2018-11-28T16:01:00Z</time>
      </trkpt>
      <trkpt lat="43.58206" lon="6.27552">
        <ele>335.7</ele>
        <time>2018-11-28T16:01:05Z</time>
      </trkpt>
      <trkpt lat="43.58211" lon="6.27562">
        <ele>335.9</ele>
        <time>2018-11-28T16:01:21Z</time>
      </trkpt>
      <trkpt lat="43.58212" lon="6.27575">
        <ele>336</ele>
        <time>2018-11-28T16:01:30Z</time>
      </trkpt>
      <trkpt lat="43.58211" lon="6.27587">
        <ele>336.1</ele>
        <time>2018-11-28T16:01:37Z</time>
      </trkpt>
      <trkpt lat="43.58202" lon="6.27594">
        <ele>336.2</ele>
        <time>2018-11-28T16:01:47Z</time>
      </trkpt>
      <trkpt lat="43.58197" lon="6.27604">
        <ele>336.4</ele>
        <time>2018-11-28T16:01:56Z</time>
      </trkpt>
      <trkpt lat="43.58189" lon="6.27611">
        <ele>336.5</ele>
        <time>2018-11-28T16:02:06Z</time>
      </trkpt>
      <trkpt lat="43.5818" lon="6.27615">
        <ele>336.6</ele>
        <time>2018-11-28T16:02:14Z</time>
      </trkpt>
      <trkpt lat="43.58171" lon="6.27609">
        <ele>336.4</ele>
        <time>2018-11-28T16:02:24Z</time>
      </trkpt>
      <trkpt lat="43.5816" lon="6.27602">
        <ele>334</ele>
        <time>2018-11-28T16:02:59Z</time>
      </trkpt>
      <trkpt lat="43.58156" lon="6.27591">
        <ele>333</ele>
        <time>2018-11-28T16:03:32Z</time>
      </trkpt>
      <trkpt lat="43.58149" lon="6.2758">
        <ele>332.7</ele>
        <time>2018-11-28T16:03:43Z</time>
      </trkpt>
      <trkpt lat="43.58148" lon="6.27568">
        <ele>332.2</ele>
        <time>2018-11-28T16:03:51Z</time>
      </trkpt>
      <trkpt lat="43.58156" lon="6.2756">
        <ele>331.5</ele>
        <time>2018-11-28T16:04:10Z</time>
      </trkpt>
      <trkpt lat="43.58158" lon="6.27546">
        <ele>331.3</ele>
        <time>2018-11-28T16:04:23Z</time>
      </trkpt>
      <trkpt lat="43.58153" lon="6.27535">
        <ele>330.5</ele>
        <time>2018-11-28T16:04:30Z</time>
      </trkpt>
      <trkpt lat="43.58144" lon="6.2753">
        <ele>328.5</ele>
        <time>2018-11-28T16:04:43Z</time>
      </trkpt>
      <trkpt lat="43.58143" lon="6.27514">
        <ele>326.9</ele>
        <time>2018-11-28T16:04:58Z</time>
      </trkpt>
      <trkpt lat="43.58153" lon="6.2751">
        <ele>326.4</ele>
        <time>2018-11-28T16:05:10Z</time>
      </trkpt>
      <trkpt lat="43.58162" lon="6.27506">
        <ele>326.5</ele>
        <time>2018-11-28T16:05:19Z</time>
      </trkpt>
      <trkpt lat="43.58172" lon="6.27505">
        <ele>326.7</ele>
        <time>2018-11-28T16:05:28Z</time>
      </trkpt>
      <trkpt lat="43.58181" lon="6.27504">
        <ele>327.2</ele>
        <time>2018-11-28T16:05:37Z</time>
      </trkpt>
      <trkpt lat="43.5819" lon="6.27504">
        <ele>327.9</ele>
        <time>2018-11-28T16:05:46Z</time>
      </trkpt>
      <trkpt lat="43.582" lon="6.27501">
        <ele>328.6</ele>
        <time>2018-11-28T16:05:53Z</time>
      </trkpt>
      <trkpt lat="43.58209" lon="6.27501">
        <ele>329.5</ele>
        <time>2018-11-28T16:06:01Z</time>
      </trkpt>
      <trkpt lat="43.58219" lon="6.27499">
        <ele>331.3</ele>
        <time>2018-11-28T16:06:12Z</time>
      </trkpt>
      <trkpt lat="43.58226" lon="6.2749">
        <ele>334.6</ele>
        <time>2018-11-28T16:06:40Z</time>
      </trkpt>
      <trkpt lat="43.58227" lon="6.27476">
        <ele>334.8</ele>
        <time>2018-11-28T16:06:48Z</time>
      </trkpt>
      <trkpt lat="43.58224" lon="6.27463">
        <ele>334.6</ele>
        <time>2018-11-28T16:06:56Z</time>
      </trkpt>
      <trkpt lat="43.58219" lon="6.27451">
        <ele>334.1</ele>
        <time>2018-11-28T16:07:06Z</time>
      </trkpt>
      <trkpt lat="43.58217" lon="6.27438">
        <ele>333.6</ele>
        <time>2018-11-28T16:07:15Z</time>
      </trkpt>
      <trkpt lat="43.58215" lon="6.27424">
        <ele>333</ele>
        <time>2018-11-28T16:07:24Z</time>
      </trkpt>
      <trkpt lat="43.58214" lon="6.27411">
        <ele>332.6</ele>
        <time>2018-11-28T16:07:31Z</time>
      </trkpt>
      <trkpt lat="43.58213" lon="6.27398">
        <ele>332.2</ele>
        <time>2018-11-28T16:07:38Z</time>
      </trkpt>
      <trkpt lat="43.58213" lon="6.27385">
        <ele>331.8</ele>
        <time>2018-11-28T16:07:46Z</time>
      </trkpt>
      <trkpt lat="43.58212" lon="6.27373">
        <ele>331.5</ele>
        <time>2018-11-28T16:07:53Z</time>
      </trkpt>
      <trkpt lat="43.5821" lon="6.2736">
        <ele>330.9</ele>
        <time>2018-11-28T16:08:03Z</time>
      </trkpt>
      <trkpt lat="43.5821" lon="6.27347">
        <ele>330.4</ele>
        <time>2018-11-28T16:08:15Z</time>
      </trkpt>
      <trkpt lat="43.58209" lon="6.27326">
        <ele>331.2</ele>
        <time>2018-11-28T16:09:29Z</time>
      </trkpt>
    </trkseg>
  </trk>
</gpx>